<?xml version="1.0" encoding="UTF-8" standalone="no" ?>
<gpx xmlns="http://www.topografix.com/GPX/1/1" xmlns:xsi="http://www.w3.org/2001/XMLSchema-instance" xsi:schemaLocation="http://www.topografix.com/GPX/1/1 http://www.topografix.com/GPX/1/1/gpx.xsd" version="1.1" creator="VisuGPX - https://www.visugpx.com">
  <metadata>
    <name>Raid 2010 - Etape 3 (VTT)</name>
    <desc><![CDATA[Oulà ca monte aujourd\'hui!]]></desc>
  </metadata>
  <trk>
    <name><![CDATA[DG-100 Track]]></name>
    <trkseg>
      <trkpt lat="45.53844" lon="6.04242">
        <ele>784.58666992188</ele>
        <time>2010-08-28T09:03:33Z</time>
      </trkpt>
      <trkpt lat="45.53839" lon="6.04239">
        <ele>785.35162353516</ele>
        <time>2010-08-28T09:04:30Z</time>
      </trkpt>
      <trkpt lat="45.53842" lon="6.04232">
        <ele>784.65838623047</ele>
        <time>2010-08-28T09:05:01Z</time>
      </trkpt>
      <trkpt lat="45.53885" lon="6.04098">
        <ele>780.70770263672</ele>
        <time>2010-08-28T09:05:31Z</time>
      </trkpt>
      <trkpt lat="45.53925" lon="6.03968">
        <ele>780</ele>
        <time>2010-08-28T09:06:01Z</time>
      </trkpt>
      <trkpt lat="45.5402" lon="6.03849">
        <ele>779.28259277344</ele>
        <time>2010-08-28T09:06:31Z</time>
      </trkpt>
      <trkpt lat="45.54108" lon="6.03741">
        <ele>774.16241455078</ele>
        <time>2010-08-28T09:07:01Z</time>
      </trkpt>
      <trkpt lat="45.54196" lon="6.03729">
        <ele>766.19158935547</ele>
        <time>2010-08-28T09:07:31Z</time>
      </trkpt>
      <trkpt lat="45.54287" lon="6.03735">
        <ele>758.65582275391</ele>
        <time>2010-08-28T09:08:01Z</time>
      </trkpt>
      <trkpt lat="45.54364" lon="6.03781">
        <ele>756.14013671875</ele>
        <time>2010-08-28T09:08:31Z</time>
      </trkpt>
      <trkpt lat="45.54416" lon="6.03795">
        <ele>756.24029541016</ele>
        <time>2010-08-28T09:09:01Z</time>
      </trkpt>
      <trkpt lat="45.54466" lon="6.03819">
        <ele>758.79858398438</ele>
        <time>2010-08-28T09:09:31Z</time>
      </trkpt>
      <trkpt lat="45.54521" lon="6.03835">
        <ele>764.31018066406</ele>
        <time>2010-08-28T09:10:01Z</time>
      </trkpt>
      <trkpt lat="45.54581" lon="6.03828">
        <ele>760.84820556641</ele>
        <time>2010-08-28T09:10:31Z</time>
      </trkpt>
      <trkpt lat="45.54626" lon="6.03855">
        <ele>763.93255615234</ele>
        <time>2010-08-28T09:11:01Z</time>
      </trkpt>
      <trkpt lat="45.54661" lon="6.03901">
        <ele>776.1357421875</ele>
        <time>2010-08-28T09:11:31Z</time>
      </trkpt>
      <trkpt lat="45.54715" lon="6.03878">
        <ele>775.57336425781</ele>
        <time>2010-08-28T09:12:01Z</time>
      </trkpt>
      <trkpt lat="45.54766" lon="6.03908">
        <ele>795.65802001953</ele>
        <time>2010-08-28T09:12:31Z</time>
      </trkpt>
      <trkpt lat="45.54835" lon="6.03918">
        <ele>804.50317382812</ele>
        <time>2010-08-28T09:13:01Z</time>
      </trkpt>
      <trkpt lat="45.54904" lon="6.03939">
        <ele>810.57049560547</ele>
        <time>2010-08-28T09:13:31Z</time>
      </trkpt>
      <trkpt lat="45.54966" lon="6.03996">
        <ele>806.22686767578</ele>
        <time>2010-08-28T09:14:01Z</time>
      </trkpt>
      <trkpt lat="45.54988" lon="6.04092">
        <ele>804.99652099609</ele>
        <time>2010-08-28T09:14:31Z</time>
      </trkpt>
      <trkpt lat="45.55013" lon="6.04178">
        <ele>803.68670654297</ele>
        <time>2010-08-28T09:15:01Z</time>
      </trkpt>
      <trkpt lat="45.55112" lon="6.0422">
        <ele>806.64886474609</ele>
        <time>2010-08-28T09:15:31Z</time>
      </trkpt>
      <trkpt lat="45.55259" lon="6.04048">
        <ele>801.58502197266</ele>
        <time>2010-08-28T09:16:01Z</time>
      </trkpt>
      <trkpt lat="45.55388" lon="6.03994">
        <ele>807.55480957031</ele>
        <time>2010-08-28T09:16:31Z</time>
      </trkpt>
      <trkpt lat="45.55527" lon="6.0397">
        <ele>797.44952392578</ele>
        <time>2010-08-28T09:17:01Z</time>
      </trkpt>
      <trkpt lat="45.55702" lon="6.0393">
        <ele>804.10260009766</ele>
        <time>2010-08-28T09:17:31Z</time>
      </trkpt>
      <trkpt lat="45.55802" lon="6.03926">
        <ele>801.83154296875</ele>
        <time>2010-08-28T09:18:01Z</time>
      </trkpt>
      <trkpt lat="45.55833" lon="6.04115">
        <ele>809.52819824219</ele>
        <time>2010-08-28T09:18:31Z</time>
      </trkpt>
      <trkpt lat="45.56044" lon="6.04147">
        <ele>795.19952392578</ele>
        <time>2010-08-28T09:19:01Z</time>
      </trkpt>
      <trkpt lat="45.562" lon="6.04116">
        <ele>801.01007080078</ele>
        <time>2010-08-28T09:19:31Z</time>
      </trkpt>
      <trkpt lat="45.56351" lon="6.03844">
        <ele>779.15350341797</ele>
        <time>2010-08-28T09:20:01Z</time>
      </trkpt>
      <trkpt lat="45.56613" lon="6.03785">
        <ele>778.50903320312</ele>
        <time>2010-08-28T09:20:31Z</time>
      </trkpt>
      <trkpt lat="45.56755" lon="6.03784">
        <ele>778.44769287109</ele>
        <time>2010-08-28T09:21:01Z</time>
      </trkpt>
      <trkpt lat="45.56867" lon="6.0383">
        <ele>784.54113769531</ele>
        <time>2010-08-28T09:21:31Z</time>
      </trkpt>
      <trkpt lat="45.56953" lon="6.03829">
        <ele>788.80072021484</ele>
        <time>2010-08-28T09:22:01Z</time>
      </trkpt>
      <trkpt lat="45.56995" lon="6.03769">
        <ele>783.03619384766</ele>
        <time>2010-08-28T09:22:31Z</time>
      </trkpt>
      <trkpt lat="45.56957" lon="6.03536">
        <ele>759</ele>
        <time>2010-08-28T09:23:01Z</time>
      </trkpt>
      <trkpt lat="45.57019" lon="6.03527">
        <ele>758.98992919922</ele>
        <time>2010-08-28T09:23:31Z</time>
      </trkpt>
      <trkpt lat="45.57142" lon="6.03547">
        <ele>759.50189208984</ele>
        <time>2010-08-28T09:24:01Z</time>
      </trkpt>
      <trkpt lat="45.57207" lon="6.0352">
        <ele>761.93914794922</ele>
        <time>2010-08-28T09:24:31Z</time>
      </trkpt>
      <trkpt lat="45.57272" lon="6.03504">
        <ele>765.02044677734</ele>
        <time>2010-08-28T09:25:01Z</time>
      </trkpt>
      <trkpt lat="45.57381" lon="6.03476">
        <ele>765.15313720703</ele>
        <time>2010-08-28T09:25:31Z</time>
      </trkpt>
      <trkpt lat="45.57405" lon="6.03549">
        <ele>766.00238037109</ele>
        <time>2010-08-28T09:26:01Z</time>
      </trkpt>
      <trkpt lat="45.57393" lon="6.03561">
        <ele>767.96203613281</ele>
        <time>2010-08-28T09:26:31Z</time>
      </trkpt>
      <trkpt lat="45.57396" lon="6.03565">
        <ele>767.87622070312</ele>
        <time>2010-08-28T09:27:15Z</time>
      </trkpt>
      <trkpt lat="45.57394" lon="6.03572">
        <ele>768.65899658203</ele>
        <time>2010-08-28T09:27:56Z</time>
      </trkpt>
      <trkpt lat="45.57384" lon="6.03626">
        <ele>771.72741699219</ele>
        <time>2010-08-28T09:28:26Z</time>
      </trkpt>
      <trkpt lat="45.57381" lon="6.03682">
        <ele>774.37512207031</ele>
        <time>2010-08-28T09:28:56Z</time>
      </trkpt>
      <trkpt lat="45.57375" lon="6.03741">
        <ele>777.16485595703</ele>
        <time>2010-08-28T09:29:26Z</time>
      </trkpt>
      <trkpt lat="45.5739" lon="6.03808">
        <ele>781.19714355469</ele>
        <time>2010-08-28T09:29:56Z</time>
      </trkpt>
      <trkpt lat="45.5741" lon="6.03868">
        <ele>782.69567871094</ele>
        <time>2010-08-28T09:30:26Z</time>
      </trkpt>
      <trkpt lat="45.57437" lon="6.03925">
        <ele>781.19799804688</ele>
        <time>2010-08-28T09:30:56Z</time>
      </trkpt>
      <trkpt lat="45.57431" lon="6.0399">
        <ele>784.16864013672</ele>
        <time>2010-08-28T09:31:26Z</time>
      </trkpt>
      <trkpt lat="45.57407" lon="6.04051">
        <ele>792.88342285156</ele>
        <time>2010-08-28T09:31:56Z</time>
      </trkpt>
      <trkpt lat="45.57374" lon="6.04111">
        <ele>803.71038818359</ele>
        <time>2010-08-28T09:32:26Z</time>
      </trkpt>
      <trkpt lat="45.57343" lon="6.04164">
        <ele>813.24969482422</ele>
        <time>2010-08-28T09:32:56Z</time>
      </trkpt>
      <trkpt lat="45.57318" lon="6.04226">
        <ele>823.74273681641</ele>
        <time>2010-08-28T09:33:26Z</time>
      </trkpt>
      <trkpt lat="45.57291" lon="6.04283">
        <ele>833.82745361328</ele>
        <time>2010-08-28T09:33:56Z</time>
      </trkpt>
      <trkpt lat="45.57292" lon="6.04347">
        <ele>837.96990966797</ele>
        <time>2010-08-28T09:34:26Z</time>
      </trkpt>
      <trkpt lat="45.57337" lon="6.04352">
        <ele>829.85345458984</ele>
        <time>2010-08-28T09:34:56Z</time>
      </trkpt>
      <trkpt lat="45.5739" lon="6.04357">
        <ele>826.10430908203</ele>
        <time>2010-08-28T09:35:26Z</time>
      </trkpt>
      <trkpt lat="45.57384" lon="6.04395">
        <ele>836.50567626953</ele>
        <time>2010-08-28T09:35:56Z</time>
      </trkpt>
      <trkpt lat="45.57345" lon="6.04435">
        <ele>850.29504394531</ele>
        <time>2010-08-28T09:36:26Z</time>
      </trkpt>
      <trkpt lat="45.57308" lon="6.04479">
        <ele>870.93176269531</ele>
        <time>2010-08-28T09:36:56Z</time>
      </trkpt>
      <trkpt lat="45.57322" lon="6.04521">
        <ele>876.85211181641</ele>
        <time>2010-08-28T09:37:26Z</time>
      </trkpt>
      <trkpt lat="45.57357" lon="6.04572">
        <ele>874.96813964844</ele>
        <time>2010-08-28T09:37:56Z</time>
      </trkpt>
      <trkpt lat="45.57411" lon="6.04579">
        <ele>860.96960449219</ele>
        <time>2010-08-28T09:38:26Z</time>
      </trkpt>
      <trkpt lat="45.5743" lon="6.04636">
        <ele>859.294921875</ele>
        <time>2010-08-28T09:38:56Z</time>
      </trkpt>
      <trkpt lat="45.57409" lon="6.0468">
        <ele>874.74456787109</ele>
        <time>2010-08-28T09:39:26Z</time>
      </trkpt>
      <trkpt lat="45.57431" lon="6.04722">
        <ele>873.82525634766</ele>
        <time>2010-08-28T09:39:56Z</time>
      </trkpt>
      <trkpt lat="45.57449" lon="6.04769">
        <ele>877.96105957031</ele>
        <time>2010-08-28T09:40:26Z</time>
      </trkpt>
      <trkpt lat="45.57473" lon="6.04812">
        <ele>880.98272705078</ele>
        <time>2010-08-28T09:40:56Z</time>
      </trkpt>
      <trkpt lat="45.57495" lon="6.04861">
        <ele>881.82781982422</ele>
        <time>2010-08-28T09:41:26Z</time>
      </trkpt>
      <trkpt lat="45.5752" lon="6.04904">
        <ele>877.12249755859</ele>
        <time>2010-08-28T09:41:56Z</time>
      </trkpt>
      <trkpt lat="45.57536" lon="6.04949">
        <ele>880.04772949219</ele>
        <time>2010-08-28T09:42:26Z</time>
      </trkpt>
      <trkpt lat="45.57549" lon="6.05006">
        <ele>887.41070556641</ele>
        <time>2010-08-28T09:42:56Z</time>
      </trkpt>
      <trkpt lat="45.5756" lon="6.05054">
        <ele>891.53692626953</ele>
        <time>2010-08-28T09:43:26Z</time>
      </trkpt>
      <trkpt lat="45.57572" lon="6.05115">
        <ele>891.44836425781</ele>
        <time>2010-08-28T09:43:56Z</time>
      </trkpt>
      <trkpt lat="45.57566" lon="6.05161">
        <ele>908.150390625</ele>
        <time>2010-08-28T09:44:26Z</time>
      </trkpt>
      <trkpt lat="45.57551" lon="6.0521">
        <ele>928.74603271484</ele>
        <time>2010-08-28T09:44:56Z</time>
      </trkpt>
      <trkpt lat="45.57553" lon="6.05255">
        <ele>934.38592529297</ele>
        <time>2010-08-28T09:45:26Z</time>
      </trkpt>
      <trkpt lat="45.57567" lon="6.05299">
        <ele>931.92041015625</ele>
        <time>2010-08-28T09:45:56Z</time>
      </trkpt>
      <trkpt lat="45.57565" lon="6.05359">
        <ele>941.41467285156</ele>
        <time>2010-08-28T09:46:26Z</time>
      </trkpt>
      <trkpt lat="45.57568" lon="6.05409">
        <ele>949.85260009766</ele>
        <time>2010-08-28T09:46:56Z</time>
      </trkpt>
      <trkpt lat="45.5757" lon="6.05454">
        <ele>950.83959960938</ele>
        <time>2010-08-28T09:47:26Z</time>
      </trkpt>
      <trkpt lat="45.57567" lon="6.05526">
        <ele>965.44952392578</ele>
        <time>2010-08-28T09:47:56Z</time>
      </trkpt>
      <trkpt lat="45.57574" lon="6.05585">
        <ele>966.71301269531</ele>
        <time>2010-08-28T09:48:26Z</time>
      </trkpt>
      <trkpt lat="45.57583" lon="6.05641">
        <ele>973.73980712891</ele>
        <time>2010-08-28T09:48:56Z</time>
      </trkpt>
      <trkpt lat="45.576" lon="6.0569">
        <ele>969.72399902344</ele>
        <time>2010-08-28T09:49:26Z</time>
      </trkpt>
      <trkpt lat="45.57614" lon="6.0575">
        <ele>971.18835449219</ele>
        <time>2010-08-28T09:49:56Z</time>
      </trkpt>
      <trkpt lat="45.57632" lon="6.058">
        <ele>977.76947021484</ele>
        <time>2010-08-28T09:50:26Z</time>
      </trkpt>
      <trkpt lat="45.57656" lon="6.05856">
        <ele>966.52917480469</ele>
        <time>2010-08-28T09:50:56Z</time>
      </trkpt>
      <trkpt lat="45.57684" lon="6.05908">
        <ele>953.80279541016</ele>
        <time>2010-08-28T09:51:26Z</time>
      </trkpt>
      <trkpt lat="45.57693" lon="6.05943">
        <ele>953.75958251953</ele>
        <time>2010-08-28T09:51:56Z</time>
      </trkpt>
      <trkpt lat="45.57692" lon="6.0595">
        <ele>957.13739013672</ele>
        <time>2010-08-28T09:52:44Z</time>
      </trkpt>
      <trkpt lat="45.57697" lon="6.05948">
        <ele>951.47961425781</ele>
        <time>2010-08-28T09:54:43Z</time>
      </trkpt>
      <trkpt lat="45.57691" lon="6.05949">
        <ele>959.48010253906</ele>
        <time>2010-08-28T09:55:13Z</time>
      </trkpt>
      <trkpt lat="45.57695" lon="6.05952">
        <ele>953.70703125</ele>
        <time>2010-08-28T09:55:49Z</time>
      </trkpt>
      <trkpt lat="45.57691" lon="6.05956">
        <ele>960.98809814453</ele>
        <time>2010-08-28T09:56:19Z</time>
      </trkpt>
      <trkpt lat="45.57692" lon="6.0595">
        <ele>957.83471679688</ele>
        <time>2010-08-28T09:58:39Z</time>
      </trkpt>
      <trkpt lat="45.57685" lon="6.05958">
        <ele>972.60650634766</ele>
        <time>2010-08-28T09:59:09Z</time>
      </trkpt>
      <trkpt lat="45.57708" lon="6.0603">
        <ele>966.83642578125</ele>
        <time>2010-08-28T09:59:39Z</time>
      </trkpt>
      <trkpt lat="45.57726" lon="6.061">
        <ele>960.08483886719</ele>
        <time>2010-08-28T10:00:09Z</time>
      </trkpt>
      <trkpt lat="45.57675" lon="6.06151">
        <ele>993.28747558594</ele>
        <time>2010-08-28T10:00:39Z</time>
      </trkpt>
      <trkpt lat="45.57647" lon="6.06138">
        <ele>1008.8673706055</ele>
        <time>2010-08-28T10:01:09Z</time>
      </trkpt>
      <trkpt lat="45.57637" lon="6.06124">
        <ele>1022.1015625</ele>
        <time>2010-08-28T10:01:39Z</time>
      </trkpt>
      <trkpt lat="45.57633" lon="6.06107">
        <ele>1031.8013916016</ele>
        <time>2010-08-28T10:02:09Z</time>
      </trkpt>
      <trkpt lat="45.57641" lon="6.06121">
        <ele>1021.3776855469</ele>
        <time>2010-08-28T10:02:39Z</time>
      </trkpt>
      <trkpt lat="45.57641" lon="6.06115">
        <ele>1024.4632568359</ele>
        <time>2010-08-28T10:03:17Z</time>
      </trkpt>
      <trkpt lat="45.57644" lon="6.06105">
        <ele>1025.5090332031</ele>
        <time>2010-08-28T10:03:47Z</time>
      </trkpt>
      <trkpt lat="45.5765" lon="6.06076">
        <ele>1029.8664550781</ele>
        <time>2010-08-28T10:04:17Z</time>
      </trkpt>
      <trkpt lat="45.57664" lon="6.06049">
        <ele>1028.3753662109</ele>
        <time>2010-08-28T10:04:47Z</time>
      </trkpt>
      <trkpt lat="45.57659" lon="6.06029">
        <ele>1034.3463134766</ele>
        <time>2010-08-28T10:05:17Z</time>
      </trkpt>
      <trkpt lat="45.57647" lon="6.06026">
        <ele>1041.814453125</ele>
        <time>2010-08-28T10:05:47Z</time>
      </trkpt>
      <trkpt lat="45.5764" lon="6.0602">
        <ele>1046.6021728516</ele>
        <time>2010-08-28T10:06:17Z</time>
      </trkpt>
      <trkpt lat="45.5762" lon="6.06023">
        <ele>1055.8862304688</ele>
        <time>2010-08-28T10:06:47Z</time>
      </trkpt>
      <trkpt lat="45.57613" lon="6.06016">
        <ele>1059.1052246094</ele>
        <time>2010-08-28T10:07:17Z</time>
      </trkpt>
      <trkpt lat="45.57598" lon="6.06018">
        <ele>1071.8326416016</ele>
        <time>2010-08-28T10:07:47Z</time>
      </trkpt>
      <trkpt lat="45.57585" lon="6.0602">
        <ele>1083.7489013672</ele>
        <time>2010-08-28T10:08:17Z</time>
      </trkpt>
      <trkpt lat="45.57578" lon="6.06011">
        <ele>1091.3096923828</ele>
        <time>2010-08-28T10:08:47Z</time>
      </trkpt>
      <trkpt lat="45.57559" lon="6.06013">
        <ele>1102.4415283203</ele>
        <time>2010-08-28T10:09:17Z</time>
      </trkpt>
      <trkpt lat="45.57543" lon="6.06005">
        <ele>1110.2027587891</ele>
        <time>2010-08-28T10:09:47Z</time>
      </trkpt>
      <trkpt lat="45.57533" lon="6.06009">
        <ele>1112.0563964844</ele>
        <time>2010-08-28T10:10:17Z</time>
      </trkpt>
      <trkpt lat="45.57523" lon="6.05995">
        <ele>1118.9791259766</ele>
        <time>2010-08-28T10:10:47Z</time>
      </trkpt>
      <trkpt lat="45.57515" lon="6.05989">
        <ele>1122.7624511719</ele>
        <time>2010-08-28T10:11:17Z</time>
      </trkpt>
      <trkpt lat="45.57494" lon="6.0599">
        <ele>1126.9754638672</ele>
        <time>2010-08-28T10:11:47Z</time>
      </trkpt>
      <trkpt lat="45.57488" lon="6.06003">
        <ele>1122.2425537109</ele>
        <time>2010-08-28T10:12:17Z</time>
      </trkpt>
      <trkpt lat="45.57472" lon="6.06025">
        <ele>1116.2069091797</ele>
        <time>2010-08-28T10:12:47Z</time>
      </trkpt>
      <trkpt lat="45.5745" lon="6.06044">
        <ele>1114.91015625</ele>
        <time>2010-08-28T10:13:17Z</time>
      </trkpt>
      <trkpt lat="45.5743" lon="6.0606">
        <ele>1116.2966308594</ele>
        <time>2010-08-28T10:13:47Z</time>
      </trkpt>
      <trkpt lat="45.57404" lon="6.06081">
        <ele>1120.9637451172</ele>
        <time>2010-08-28T10:14:17Z</time>
      </trkpt>
      <trkpt lat="45.57389" lon="6.06086">
        <ele>1124.2719726562</ele>
        <time>2010-08-28T10:14:47Z</time>
      </trkpt>
      <trkpt lat="45.57376" lon="6.06099">
        <ele>1126.0018310547</ele>
        <time>2010-08-28T10:15:17Z</time>
      </trkpt>
      <trkpt lat="45.57383" lon="6.06112">
        <ele>1121.7556152344</ele>
        <time>2010-08-28T10:15:47Z</time>
      </trkpt>
      <trkpt lat="45.57391" lon="6.06146">
        <ele>1115.7990722656</ele>
        <time>2010-08-28T10:16:17Z</time>
      </trkpt>
      <trkpt lat="45.57391" lon="6.06154">
        <ele>1115.1530761719</ele>
        <time>2010-08-28T10:16:47Z</time>
      </trkpt>
      <trkpt lat="45.57386" lon="6.06159">
        <ele>1116.2816162109</ele>
        <time>2010-08-28T10:17:17Z</time>
      </trkpt>
      <trkpt lat="45.57391" lon="6.06157">
        <ele>1114.8946533203</ele>
        <time>2010-08-28T10:17:49Z</time>
      </trkpt>
      <trkpt lat="45.57395" lon="6.06157">
        <ele>1113.3933105469</ele>
        <time>2010-08-28T10:18:19Z</time>
      </trkpt>
      <trkpt lat="45.57401" lon="6.06156">
        <ele>1111.5189208984</ele>
        <time>2010-08-28T10:19:41Z</time>
      </trkpt>
      <trkpt lat="45.5741" lon="6.06156">
        <ele>1108.0139160156</ele>
        <time>2010-08-28T10:20:11Z</time>
      </trkpt>
      <trkpt lat="45.57407" lon="6.0615">
        <ele>1109.6357421875</ele>
        <time>2010-08-28T10:21:25Z</time>
      </trkpt>
      <trkpt lat="45.57402" lon="6.06153">
        <ele>1111.2059326172</ele>
        <time>2010-08-28T10:21:55Z</time>
      </trkpt>
      <trkpt lat="45.57393" lon="6.06152">
        <ele>1114.7618408203</ele>
        <time>2010-08-28T10:22:25Z</time>
      </trkpt>
      <trkpt lat="45.57397" lon="6.06149">
        <ele>1113.4030761719</ele>
        <time>2010-08-28T10:22:55Z</time>
      </trkpt>
      <trkpt lat="45.57393" lon="6.06153">
        <ele>1114.6687011719</ele>
        <time>2010-08-28T10:23:25Z</time>
      </trkpt>
      <trkpt lat="45.574" lon="6.06146">
        <ele>1112.7352294922</ele>
        <time>2010-08-28T10:23:55Z</time>
      </trkpt>
      <trkpt lat="45.5739" lon="6.06162">
        <ele>1114.8403320312</ele>
        <time>2010-08-28T10:24:25Z</time>
      </trkpt>
      <trkpt lat="45.57385" lon="6.06176">
        <ele>1115.2026367188</ele>
        <time>2010-08-28T10:24:55Z</time>
      </trkpt>
      <trkpt lat="45.57382" lon="6.0618">
        <ele>1115.9620361328</ele>
        <time>2010-08-28T10:25:35Z</time>
      </trkpt>
      <trkpt lat="45.57367" lon="6.06205">
        <ele>1120.3642578125</ele>
        <time>2010-08-28T10:26:05Z</time>
      </trkpt>
      <trkpt lat="45.57369" lon="6.0622">
        <ele>1119.4289550781</ele>
        <time>2010-08-28T10:26:35Z</time>
      </trkpt>
      <trkpt lat="45.57365" lon="6.06226">
        <ele>1121.2260742188</ele>
        <time>2010-08-28T10:27:05Z</time>
      </trkpt>
      <trkpt lat="45.57387" lon="6.06222">
        <ele>1111.0139160156</ele>
        <time>2010-08-28T10:27:35Z</time>
      </trkpt>
      <trkpt lat="45.57389" lon="6.06235">
        <ele>1111.3107910156</ele>
        <time>2010-08-28T10:28:05Z</time>
      </trkpt>
      <trkpt lat="45.57396" lon="6.06242">
        <ele>1108.5423583984</ele>
        <time>2010-08-28T10:28:35Z</time>
      </trkpt>
      <trkpt lat="45.57398" lon="6.06258">
        <ele>1110.3624267578</ele>
        <time>2010-08-28T10:29:05Z</time>
      </trkpt>
      <trkpt lat="45.57397" lon="6.06265">
        <ele>1112.1778564453</ele>
        <time>2010-08-28T10:29:35Z</time>
      </trkpt>
      <trkpt lat="45.57394" lon="6.06271">
        <ele>1114.2880859375</ele>
        <time>2010-08-28T10:30:09Z</time>
      </trkpt>
      <trkpt lat="45.57401" lon="6.06262">
        <ele>1109.7744140625</ele>
        <time>2010-08-28T10:30:39Z</time>
      </trkpt>
      <trkpt lat="45.57397" lon="6.06258">
        <ele>1110.9111328125</ele>
        <time>2010-08-28T10:31:45Z</time>
      </trkpt>
      <trkpt lat="45.57401" lon="6.06256">
        <ele>1108.6206054688</ele>
        <time>2010-08-28T10:32:15Z</time>
      </trkpt>
      <trkpt lat="45.57406" lon="6.06257">
        <ele>1106.7639160156</ele>
        <time>2010-08-28T10:32:53Z</time>
      </trkpt>
      <trkpt lat="45.57415" lon="6.06288">
        <ele>1112.9857177734</ele>
        <time>2010-08-28T10:33:23Z</time>
      </trkpt>
      <trkpt lat="45.57411" lon="6.06334">
        <ele>1128.9896240234</ele>
        <time>2010-08-28T10:33:53Z</time>
      </trkpt>
      <trkpt lat="45.57394" lon="6.06393">
        <ele>1147.0189208984</ele>
        <time>2010-08-28T10:34:23Z</time>
      </trkpt>
      <trkpt lat="45.57406" lon="6.06429">
        <ele>1149.1685791016</ele>
        <time>2010-08-28T10:34:53Z</time>
      </trkpt>
      <trkpt lat="45.57404" lon="6.06423">
        <ele>1148.365234375</ele>
        <time>2010-08-28T10:35:28Z</time>
      </trkpt>
      <trkpt lat="45.57409" lon="6.06422">
        <ele>1146.7069091797</ele>
        <time>2010-08-28T10:36:21Z</time>
      </trkpt>
      <trkpt lat="45.57415" lon="6.06422">
        <ele>1144.4615478516</ele>
        <time>2010-08-28T10:36:51Z</time>
      </trkpt>
      <trkpt lat="45.57419" lon="6.06426">
        <ele>1144.1525878906</ele>
        <time>2010-08-28T10:37:35Z</time>
      </trkpt>
      <trkpt lat="45.57481" lon="6.06465">
        <ele>1134.4045410156</ele>
        <time>2010-08-28T10:38:05Z</time>
      </trkpt>
      <trkpt lat="45.5755" lon="6.06532">
        <ele>1127.9907226562</ele>
        <time>2010-08-28T10:38:35Z</time>
      </trkpt>
      <trkpt lat="45.57619" lon="6.06582">
        <ele>1126.8012695312</ele>
        <time>2010-08-28T10:39:05Z</time>
      </trkpt>
      <trkpt lat="45.57743" lon="6.06593">
        <ele>1110.5704345703</ele>
        <time>2010-08-28T10:39:35Z</time>
      </trkpt>
      <trkpt lat="45.57842" lon="6.0658">
        <ele>1090.0330810547</ele>
        <time>2010-08-28T10:40:05Z</time>
      </trkpt>
      <trkpt lat="45.57926" lon="6.06535">
        <ele>1075.1094970703</ele>
        <time>2010-08-28T10:40:35Z</time>
      </trkpt>
      <trkpt lat="45.5792" lon="6.06547">
        <ele>1076.83984375</ele>
        <time>2010-08-28T10:41:05Z</time>
      </trkpt>
      <trkpt lat="45.57894" lon="6.06548">
        <ele>1076.8879394531</ele>
        <time>2010-08-28T10:41:35Z</time>
      </trkpt>
      <trkpt lat="45.57905" lon="6.06538">
        <ele>1075.4459228516</ele>
        <time>2010-08-28T10:42:05Z</time>
      </trkpt>
      <trkpt lat="45.57914" lon="6.06543">
        <ele>1076.1943359375</ele>
        <time>2010-08-28T10:42:35Z</time>
      </trkpt>
      <trkpt lat="45.57959" lon="6.06507">
        <ele>1069.4741210938</ele>
        <time>2010-08-28T10:43:05Z</time>
      </trkpt>
      <trkpt lat="45.58031" lon="6.06509">
        <ele>1068.30859375</ele>
        <time>2010-08-28T10:43:35Z</time>
      </trkpt>
      <trkpt lat="45.58136" lon="6.06309">
        <ele>1036.5184326172</ele>
        <time>2010-08-28T10:44:05Z</time>
      </trkpt>
      <trkpt lat="45.58176" lon="6.06271">
        <ele>1048.4744873047</ele>
        <time>2010-08-28T10:44:35Z</time>
      </trkpt>
      <trkpt lat="45.58121" lon="6.06231">
        <ele>1053.3316650391</ele>
        <time>2010-08-28T10:45:05Z</time>
      </trkpt>
      <trkpt lat="45.58081" lon="6.062">
        <ele>1055.330078125</ele>
        <time>2010-08-28T10:45:35Z</time>
      </trkpt>
      <trkpt lat="45.5808" lon="6.0619">
        <ele>1058.0125732422</ele>
        <time>2010-08-28T10:46:05Z</time>
      </trkpt>
      <trkpt lat="45.58083" lon="6.06195">
        <ele>1056.9400634766</ele>
        <time>2010-08-28T10:46:58Z</time>
      </trkpt>
      <trkpt lat="45.58078" lon="6.06201">
        <ele>1054.50390625</ele>
        <time>2010-08-28T10:47:28Z</time>
      </trkpt>
      <trkpt lat="45.58074" lon="6.06197">
        <ele>1054.7471923828</ele>
        <time>2010-08-28T10:48:00Z</time>
      </trkpt>
      <trkpt lat="45.58072" lon="6.06203">
        <ele>1052.7730712891</ele>
        <time>2010-08-28T10:48:30Z</time>
      </trkpt>
      <trkpt lat="45.58083" lon="6.06206">
        <ele>1054.0924072266</ele>
        <time>2010-08-28T10:49:00Z</time>
      </trkpt>
      <trkpt lat="45.58065" lon="6.06201">
        <ele>1052.1483154297</ele>
        <time>2010-08-28T10:49:30Z</time>
      </trkpt>
      <trkpt lat="45.58076" lon="6.06205">
        <ele>1053.1566162109</ele>
        <time>2010-08-28T10:50:00Z</time>
      </trkpt>
      <trkpt lat="45.58071" lon="6.062">
        <ele>1053.4312744141</ele>
        <time>2010-08-28T10:50:51Z</time>
      </trkpt>
      <trkpt lat="45.57883" lon="6.05956">
        <ele>1017.2738037109</ele>
        <time>2010-08-28T10:51:21Z</time>
      </trkpt>
      <trkpt lat="45.57973" lon="6.05458">
        <ele>994.96411132812</ele>
        <time>2010-08-28T10:51:51Z</time>
      </trkpt>
      <trkpt lat="45.58081" lon="6.05134">
        <ele>948.90374755859</ele>
        <time>2010-08-28T10:52:21Z</time>
      </trkpt>
      <trkpt lat="45.58101" lon="6.05143">
        <ele>963.60711669922</ele>
        <time>2010-08-28T10:52:51Z</time>
      </trkpt>
      <trkpt lat="45.58114" lon="6.05152">
        <ele>974.72479248047</ele>
        <time>2010-08-28T10:53:21Z</time>
      </trkpt>
      <trkpt lat="45.5814" lon="6.05153">
        <ele>987.62023925781</ele>
        <time>2010-08-28T10:53:51Z</time>
      </trkpt>
      <trkpt lat="45.58171" lon="6.05114">
        <ele>992.62615966797</ele>
        <time>2010-08-28T10:54:21Z</time>
      </trkpt>
      <trkpt lat="45.58184" lon="6.05074">
        <ele>992.47186279297</ele>
        <time>2010-08-28T10:54:51Z</time>
      </trkpt>
      <trkpt lat="45.58207" lon="6.0502">
        <ele>994.06024169922</ele>
        <time>2010-08-28T10:55:21Z</time>
      </trkpt>
      <trkpt lat="45.58234" lon="6.04949">
        <ele>983.84783935547</ele>
        <time>2010-08-28T10:55:51Z</time>
      </trkpt>
      <trkpt lat="45.58265" lon="6.04893">
        <ele>975.62640380859</ele>
        <time>2010-08-28T10:56:21Z</time>
      </trkpt>
      <trkpt lat="45.58311" lon="6.04849">
        <ele>979.17279052734</ele>
        <time>2010-08-28T10:56:51Z</time>
      </trkpt>
      <trkpt lat="45.58315" lon="6.04831">
        <ele>975.50354003906</ele>
        <time>2010-08-28T10:57:21Z</time>
      </trkpt>
      <trkpt lat="45.58314" lon="6.04825">
        <ele>972.24572753906</ele>
        <time>2010-08-28T10:59:21Z</time>
      </trkpt>
      <trkpt lat="45.58318" lon="6.04832">
        <ele>976.98010253906</ele>
        <time>2010-08-28T10:59:51Z</time>
      </trkpt>
      <trkpt lat="45.58316" lon="6.04826">
        <ele>973.38873291016</ele>
        <time>2010-08-28T11:00:29Z</time>
      </trkpt>
      <trkpt lat="45.58325" lon="6.04835">
        <ele>981.41009521484</ele>
        <time>2010-08-28T11:00:59Z</time>
      </trkpt>
      <trkpt lat="45.58322" lon="6.04829">
        <ele>977.57159423828</ele>
        <time>2010-08-28T11:02:02Z</time>
      </trkpt>
      <trkpt lat="45.58327" lon="6.0482">
        <ele>976.28332519531</ele>
        <time>2010-08-28T11:02:58Z</time>
      </trkpt>
      <trkpt lat="45.58415" lon="6.0467">
        <ele>937.81329345703</ele>
        <time>2010-08-28T11:03:28Z</time>
      </trkpt>
      <trkpt lat="45.58546" lon="6.04617">
        <ele>936.70776367188</ele>
        <time>2010-08-28T11:03:58Z</time>
      </trkpt>
      <trkpt lat="45.58649" lon="6.04559">
        <ele>949.17791748047</ele>
        <time>2010-08-28T11:04:28Z</time>
      </trkpt>
      <trkpt lat="45.58775" lon="6.04374">
        <ele>927.46990966797</ele>
        <time>2010-08-28T11:04:58Z</time>
      </trkpt>
      <trkpt lat="45.58897" lon="6.04332">
        <ele>921.69812011719</ele>
        <time>2010-08-28T11:05:28Z</time>
      </trkpt>
      <trkpt lat="45.59047" lon="6.04293">
        <ele>907.67419433594</ele>
        <time>2010-08-28T11:05:58Z</time>
      </trkpt>
      <trkpt lat="45.5915" lon="6.04256">
        <ele>896.58233642578</ele>
        <time>2010-08-28T11:06:28Z</time>
      </trkpt>
      <trkpt lat="45.59151" lon="6.0424">
        <ele>892.27685546875</ele>
        <time>2010-08-28T11:06:58Z</time>
      </trkpt>
      <trkpt lat="45.59156" lon="6.04249">
        <ele>893.09057617188</ele>
        <time>2010-08-28T11:07:28Z</time>
      </trkpt>
      <trkpt lat="45.59126" lon="6.04239">
        <ele>895.84094238281</ele>
        <time>2010-08-28T11:07:58Z</time>
      </trkpt>
      <trkpt lat="45.59146" lon="6.04243">
        <ele>893.88366699219</ele>
        <time>2010-08-28T11:08:28Z</time>
      </trkpt>
      <trkpt lat="45.59166" lon="6.0426">
        <ele>894.47094726562</ele>
        <time>2010-08-28T11:08:58Z</time>
      </trkpt>
      <trkpt lat="45.59169" lon="6.04271">
        <ele>897.60815429688</ele>
        <time>2010-08-28T11:09:28Z</time>
      </trkpt>
      <trkpt lat="45.59227" lon="6.04231">
        <ele>879.32482910156</ele>
        <time>2010-08-28T11:09:58Z</time>
      </trkpt>
      <trkpt lat="45.59269" lon="6.04293">
        <ele>895.13043212891</ele>
        <time>2010-08-28T11:10:28Z</time>
      </trkpt>
      <trkpt lat="45.59353" lon="6.04176">
        <ele>879.34149169922</ele>
        <time>2010-08-28T11:10:58Z</time>
      </trkpt>
      <trkpt lat="45.59391" lon="6.04164">
        <ele>879.48706054688</ele>
        <time>2010-08-28T11:11:28Z</time>
      </trkpt>
      <trkpt lat="45.59397" lon="6.04168">
        <ele>879.79150390625</ele>
        <time>2010-08-28T11:11:58Z</time>
      </trkpt>
      <trkpt lat="45.59401" lon="6.04171">
        <ele>880.06616210938</ele>
        <time>2010-08-28T11:12:45Z</time>
      </trkpt>
      <trkpt lat="45.59405" lon="6.04175">
        <ele>880.67041015625</ele>
        <time>2010-08-28T11:13:18Z</time>
      </trkpt>
      <trkpt lat="45.59423" lon="6.04188">
        <ele>882.71380615234</ele>
        <time>2010-08-28T11:13:48Z</time>
      </trkpt>
      <trkpt lat="45.59536" lon="6.04175">
        <ele>867.43212890625</ele>
        <time>2010-08-28T11:14:18Z</time>
      </trkpt>
      <trkpt lat="45.5968" lon="6.04299">
        <ele>838.06573486328</ele>
        <time>2010-08-28T11:14:48Z</time>
      </trkpt>
      <trkpt lat="45.5967" lon="6.04179">
        <ele>819.72521972656</ele>
        <time>2010-08-28T11:15:18Z</time>
      </trkpt>
      <trkpt lat="45.59673" lon="6.04109">
        <ele>808.41241455078</ele>
        <time>2010-08-28T11:15:48Z</time>
      </trkpt>
      <trkpt lat="45.59679" lon="6.04113">
        <ele>807.72882080078</ele>
        <time>2010-08-28T11:16:18Z</time>
      </trkpt>
      <trkpt lat="45.59671" lon="6.0411">
        <ele>808.98229980469</ele>
        <time>2010-08-28T11:16:48Z</time>
      </trkpt>
      <trkpt lat="45.5968" lon="6.0416">
        <ele>815.22082519531</ele>
        <time>2010-08-28T11:17:18Z</time>
      </trkpt>
      <trkpt lat="45.59777" lon="6.04128">
        <ele>818.14672851562</ele>
        <time>2010-08-28T11:17:48Z</time>
      </trkpt>
      <trkpt lat="45.59863" lon="6.04077">
        <ele>803.31909179688</ele>
        <time>2010-08-28T11:18:18Z</time>
      </trkpt>
      <trkpt lat="45.59923" lon="6.04035">
        <ele>780.58624267578</ele>
        <time>2010-08-28T11:18:48Z</time>
      </trkpt>
      <trkpt lat="45.59991" lon="6.04036">
        <ele>798.48284912109</ele>
        <time>2010-08-28T11:19:18Z</time>
      </trkpt>
      <trkpt lat="45.60001" lon="6.04045">
        <ele>800.84045410156</ele>
        <time>2010-08-28T11:19:48Z</time>
      </trkpt>
      <trkpt lat="45.59999" lon="6.04027">
        <ele>799.76452636719</ele>
        <time>2010-08-28T11:20:18Z</time>
      </trkpt>
      <trkpt lat="45.59993" lon="6.04024">
        <ele>798.66143798828</ele>
        <time>2010-08-28T11:20:52Z</time>
      </trkpt>
      <trkpt lat="45.59995" lon="6.04038">
        <ele>799.08062744141</ele>
        <time>2010-08-28T11:21:22Z</time>
      </trkpt>
      <trkpt lat="45.59999" lon="6.04038">
        <ele>799.91082763672</ele>
        <time>2010-08-28T11:21:52Z</time>
      </trkpt>
      <trkpt lat="45.60006" lon="6.0405">
        <ele>803.40850830078</ele>
        <time>2010-08-28T11:22:22Z</time>
      </trkpt>
      <trkpt lat="45.60005" lon="6.04073">
        <ele>803.17504882812</ele>
        <time>2010-08-28T11:22:52Z</time>
      </trkpt>
      <trkpt lat="45.60013" lon="6.04089">
        <ele>808.18572998047</ele>
        <time>2010-08-28T11:23:22Z</time>
      </trkpt>
      <trkpt lat="45.60008" lon="6.04086">
        <ele>805.22778320312</ele>
        <time>2010-08-28T11:23:55Z</time>
      </trkpt>
      <trkpt lat="45.60009" lon="6.0408">
        <ele>805.27618408203</ele>
        <time>2010-08-28T11:24:31Z</time>
      </trkpt>
      <trkpt lat="45.60017" lon="6.04086">
        <ele>810.31427001953</ele>
        <time>2010-08-28T11:25:01Z</time>
      </trkpt>
      <trkpt lat="45.60014" lon="6.0408">
        <ele>808.77807617188</ele>
        <time>2010-08-28T11:25:31Z</time>
      </trkpt>
      <trkpt lat="45.6001" lon="6.04069">
        <ele>806.21002197266</ele>
        <time>2010-08-28T11:26:01Z</time>
      </trkpt>
      <trkpt lat="45.60004" lon="6.0406">
        <ele>802.2412109375</ele>
        <time>2010-08-28T11:26:31Z</time>
      </trkpt>
      <trkpt lat="45.60003" lon="6.04073">
        <ele>801.77429199219</ele>
        <time>2010-08-28T11:27:01Z</time>
      </trkpt>
      <trkpt lat="45.60003" lon="6.04084">
        <ele>802.041015625</ele>
        <time>2010-08-28T11:27:31Z</time>
      </trkpt>
      <trkpt lat="45.60001" lon="6.04077">
        <ele>800.84045410156</ele>
        <time>2010-08-28T11:28:05Z</time>
      </trkpt>
      <trkpt lat="45.59993" lon="6.04066">
        <ele>799.21795654297</ele>
        <time>2010-08-28T11:28:35Z</time>
      </trkpt>
      <trkpt lat="45.60004" lon="6.04073">
        <ele>802.2412109375</ele>
        <time>2010-08-28T11:29:05Z</time>
      </trkpt>
      <trkpt lat="45.60004" lon="6.04066">
        <ele>802.2412109375</ele>
        <time>2010-08-28T11:29:42Z</time>
      </trkpt>
      <trkpt lat="45.60008" lon="6.04046">
        <ele>805.04272460938</ele>
        <time>2010-08-28T11:30:12Z</time>
      </trkpt>
      <trkpt lat="45.59998" lon="6.04038">
        <ele>799.59185791016</ele>
        <time>2010-08-28T11:30:42Z</time>
      </trkpt>
      <trkpt lat="45.59996" lon="6.04031">
        <ele>799.37103271484</ele>
        <time>2010-08-28T11:31:24Z</time>
      </trkpt>
      <trkpt lat="45.59995" lon="6.04011">
        <ele>798.86218261719</ele>
        <time>2010-08-28T11:31:54Z</time>
      </trkpt>
      <trkpt lat="45.59982" lon="6.04007">
        <ele>795.85223388672</ele>
        <time>2010-08-28T11:32:24Z</time>
      </trkpt>
      <trkpt lat="45.59986" lon="6.04011">
        <ele>796.99407958984</ele>
        <time>2010-08-28T11:33:03Z</time>
      </trkpt>
      <trkpt lat="45.59981" lon="6.03979">
        <ele>794.75030517578</ele>
        <time>2010-08-28T11:33:33Z</time>
      </trkpt>
      <trkpt lat="45.5998" lon="6.03887">
        <ele>791.09191894531</ele>
        <time>2010-08-28T11:34:03Z</time>
      </trkpt>
      <trkpt lat="45.59982" lon="6.03746">
        <ele>787.08544921875</ele>
        <time>2010-08-28T11:34:33Z</time>
      </trkpt>
      <trkpt lat="45.59963" lon="6.03693">
        <ele>772.82800292969</ele>
        <time>2010-08-28T11:35:03Z</time>
      </trkpt>
      <trkpt lat="45.59959" lon="6.03686">
        <ele>770.04486083984</ele>
        <time>2010-08-28T11:36:16Z</time>
      </trkpt>
      <trkpt lat="45.59967" lon="6.03463">
        <ele>756.60571289062</ele>
        <time>2010-08-28T11:36:46Z</time>
      </trkpt>
      <trkpt lat="45.60014" lon="6.03258">
        <ele>749.04919433594</ele>
        <time>2010-08-28T11:37:16Z</time>
      </trkpt>
      <trkpt lat="45.60112" lon="6.03109">
        <ele>742.78649902344</ele>
        <time>2010-08-28T11:37:46Z</time>
      </trkpt>
      <trkpt lat="45.60144" lon="6.03054">
        <ele>733.90649414062</ele>
        <time>2010-08-28T11:38:16Z</time>
      </trkpt>
      <trkpt lat="45.60139" lon="6.03049">
        <ele>733.01379394531</ele>
        <time>2010-08-28T11:38:46Z</time>
      </trkpt>
      <trkpt lat="45.60134" lon="6.03049">
        <ele>733.0068359375</ele>
        <time>2010-08-28T11:39:56Z</time>
      </trkpt>
      <trkpt lat="45.60137" lon="6.02994">
        <ele>724.08978271484</ele>
        <time>2010-08-28T11:40:26Z</time>
      </trkpt>
      <trkpt lat="45.60268" lon="6.02957">
        <ele>716.64208984375</ele>
        <time>2010-08-28T11:40:56Z</time>
      </trkpt>
      <trkpt lat="45.6035" lon="6.02964">
        <ele>713.11505126953</ele>
        <time>2010-08-28T11:41:26Z</time>
      </trkpt>
      <trkpt lat="45.60355" lon="6.02967">
        <ele>713.51525878906</ele>
        <time>2010-08-28T11:43:18Z</time>
      </trkpt>
      <trkpt lat="45.60341" lon="6.02974">
        <ele>715.64184570312</ele>
        <time>2010-08-28T12:56:03Z</time>
      </trkpt>
      <trkpt lat="45.60349" lon="6.02954">
        <ele>711.34045410156</ele>
        <time>2010-08-28T12:56:31Z</time>
      </trkpt>
      <trkpt lat="45.60342" lon="6.02959">
        <ele>712.69903564453</ele>
        <time>2010-08-28T12:57:01Z</time>
      </trkpt>
      <trkpt lat="45.60347" lon="6.0296">
        <ele>712.66235351562</ele>
        <time>2010-08-28T12:57:36Z</time>
      </trkpt>
      <trkpt lat="45.60343" lon="6.02961">
        <ele>713.03594970703</ele>
        <time>2010-08-28T12:58:40Z</time>
      </trkpt>
      <trkpt lat="45.60324" lon="6.02957">
        <ele>713.27966308594</ele>
        <time>2010-08-28T12:59:10Z</time>
      </trkpt>
      <trkpt lat="45.60292" lon="6.02952">
        <ele>714.60491943359</ele>
        <time>2010-08-28T12:59:40Z</time>
      </trkpt>
      <trkpt lat="45.60251" lon="6.02946">
        <ele>714.30407714844</ele>
        <time>2010-08-28T13:00:10Z</time>
      </trkpt>
      <trkpt lat="45.60165" lon="6.02969">
        <ele>722.18322753906</ele>
        <time>2010-08-28T13:00:40Z</time>
      </trkpt>
      <trkpt lat="45.60102" lon="6.03006">
        <ele>725.81164550781</ele>
        <time>2010-08-28T13:01:10Z</time>
      </trkpt>
      <trkpt lat="45.60125" lon="6.03041">
        <ele>731.85327148438</ele>
        <time>2010-08-28T13:01:40Z</time>
      </trkpt>
      <trkpt lat="45.60163" lon="6.03065">
        <ele>736.67095947266</ele>
        <time>2010-08-28T13:02:10Z</time>
      </trkpt>
      <trkpt lat="45.60198" lon="6.0309">
        <ele>740.66821289062</ele>
        <time>2010-08-28T13:02:40Z</time>
      </trkpt>
      <trkpt lat="45.60236" lon="6.03086">
        <ele>738.41070556641</ele>
        <time>2010-08-28T13:03:10Z</time>
      </trkpt>
      <trkpt lat="45.60238" lon="6.03125">
        <ele>746.13732910156</ele>
        <time>2010-08-28T13:03:40Z</time>
      </trkpt>
      <trkpt lat="45.60268" lon="6.03158">
        <ele>753.439453125</ele>
        <time>2010-08-28T13:04:10Z</time>
      </trkpt>
      <trkpt lat="45.60304" lon="6.03169">
        <ele>752.60528564453</ele>
        <time>2010-08-28T13:04:40Z</time>
      </trkpt>
      <trkpt lat="45.60336" lon="6.03198">
        <ele>756.42266845703</ele>
        <time>2010-08-28T13:05:10Z</time>
      </trkpt>
      <trkpt lat="45.60377" lon="6.03214">
        <ele>755.88311767578</ele>
        <time>2010-08-28T13:05:40Z</time>
      </trkpt>
      <trkpt lat="45.60419" lon="6.03239">
        <ele>754.05718994141</ele>
        <time>2010-08-28T13:06:10Z</time>
      </trkpt>
      <trkpt lat="45.60456" lon="6.03277">
        <ele>757.02813720703</ele>
        <time>2010-08-28T13:06:40Z</time>
      </trkpt>
      <trkpt lat="45.60501" lon="6.0329">
        <ele>756.45660400391</ele>
        <time>2010-08-28T13:07:10Z</time>
      </trkpt>
      <trkpt lat="45.60528" lon="6.03359">
        <ele>769.76086425781</ele>
        <time>2010-08-28T13:07:40Z</time>
      </trkpt>
      <trkpt lat="45.60559" lon="6.03405">
        <ele>781.70538330078</ele>
        <time>2010-08-28T13:08:10Z</time>
      </trkpt>
      <trkpt lat="45.60582" lon="6.03346">
        <ele>784.98095703125</ele>
        <time>2010-08-28T13:08:40Z</time>
      </trkpt>
      <trkpt lat="45.60606" lon="6.03287">
        <ele>787.35131835938</ele>
        <time>2010-08-28T13:09:10Z</time>
      </trkpt>
      <trkpt lat="45.6065" lon="6.03263">
        <ele>794.83508300781</ele>
        <time>2010-08-28T13:09:40Z</time>
      </trkpt>
      <trkpt lat="45.60686" lon="6.03256">
        <ele>799.68072509766</ele>
        <time>2010-08-28T13:10:10Z</time>
      </trkpt>
      <trkpt lat="45.60661" lon="6.03309">
        <ele>802.93988037109</ele>
        <time>2010-08-28T13:10:40Z</time>
      </trkpt>
      <trkpt lat="45.60634" lon="6.03367">
        <ele>805.17626953125</ele>
        <time>2010-08-28T13:11:10Z</time>
      </trkpt>
      <trkpt lat="45.60669" lon="6.0335">
        <ele>811.16357421875</ele>
        <time>2010-08-28T13:11:40Z</time>
      </trkpt>
      <trkpt lat="45.60718" lon="6.03342">
        <ele>817.78247070312</ele>
        <time>2010-08-28T13:12:10Z</time>
      </trkpt>
      <trkpt lat="45.60764" lon="6.03341">
        <ele>818.05700683594</ele>
        <time>2010-08-28T13:12:40Z</time>
      </trkpt>
      <trkpt lat="45.60802" lon="6.0336">
        <ele>817.29431152344</ele>
        <time>2010-08-28T13:13:10Z</time>
      </trkpt>
      <trkpt lat="45.60757" lon="6.03384">
        <ele>825.18328857422</ele>
        <time>2010-08-28T13:13:40Z</time>
      </trkpt>
      <trkpt lat="45.60719" lon="6.03431">
        <ele>830.48321533203</ele>
        <time>2010-08-28T13:14:10Z</time>
      </trkpt>
      <trkpt lat="45.60691" lon="6.03493">
        <ele>834.47619628906</ele>
        <time>2010-08-28T13:14:40Z</time>
      </trkpt>
      <trkpt lat="45.60699" lon="6.03552">
        <ele>843.58239746094</ele>
        <time>2010-08-28T13:15:10Z</time>
      </trkpt>
      <trkpt lat="45.60707" lon="6.03613">
        <ele>853.52130126953</ele>
        <time>2010-08-28T13:15:40Z</time>
      </trkpt>
      <trkpt lat="45.60708" lon="6.03683">
        <ele>864.97204589844</ele>
        <time>2010-08-28T13:16:10Z</time>
      </trkpt>
      <trkpt lat="45.607" lon="6.03759">
        <ele>873.94403076172</ele>
        <time>2010-08-28T13:16:40Z</time>
      </trkpt>
      <trkpt lat="45.60648" lon="6.03732">
        <ele>855.80938720703</ele>
        <time>2010-08-28T13:17:10Z</time>
      </trkpt>
      <trkpt lat="45.60614" lon="6.03764">
        <ele>854.39349365234</ele>
        <time>2010-08-28T13:17:40Z</time>
      </trkpt>
      <trkpt lat="45.60572" lon="6.03788">
        <ele>860.07281494141</ele>
        <time>2010-08-28T13:18:10Z</time>
      </trkpt>
      <trkpt lat="45.60529" lon="6.03806">
        <ele>865.11676025391</ele>
        <time>2010-08-28T13:18:40Z</time>
      </trkpt>
      <trkpt lat="45.60482" lon="6.03814">
        <ele>871.51971435547</ele>
        <time>2010-08-28T13:19:10Z</time>
      </trkpt>
      <trkpt lat="45.60439" lon="6.03824">
        <ele>877.31072998047</ele>
        <time>2010-08-28T13:19:40Z</time>
      </trkpt>
      <trkpt lat="45.60395" lon="6.03839">
        <ele>881.08294677734</ele>
        <time>2010-08-28T13:20:10Z</time>
      </trkpt>
      <trkpt lat="45.6035" lon="6.03856">
        <ele>880.30029296875</ele>
        <time>2010-08-28T13:20:40Z</time>
      </trkpt>
      <trkpt lat="45.60312" lon="6.03887">
        <ele>886.43627929688</ele>
        <time>2010-08-28T13:21:10Z</time>
      </trkpt>
      <trkpt lat="45.603" lon="6.03907">
        <ele>889.03436279297</ele>
        <time>2010-08-28T13:21:40Z</time>
      </trkpt>
      <trkpt lat="45.60337" lon="6.03913">
        <ele>891.70581054688</ele>
        <time>2010-08-28T13:22:10Z</time>
      </trkpt>
      <trkpt lat="45.60374" lon="6.03927">
        <ele>898.79821777344</ele>
        <time>2010-08-28T13:22:40Z</time>
      </trkpt>
      <trkpt lat="45.60423" lon="6.03921">
        <ele>898.29840087891</ele>
        <time>2010-08-28T13:23:10Z</time>
      </trkpt>
      <trkpt lat="45.60471" lon="6.03924">
        <ele>896.7958984375</ele>
        <time>2010-08-28T13:23:40Z</time>
      </trkpt>
      <trkpt lat="45.60512" lon="6.03942">
        <ele>897.21881103516</ele>
        <time>2010-08-28T13:24:10Z</time>
      </trkpt>
      <trkpt lat="45.60553" lon="6.03966">
        <ele>901.20733642578</ele>
        <time>2010-08-28T13:24:40Z</time>
      </trkpt>
      <trkpt lat="45.60608" lon="6.04004">
        <ele>903.47186279297</ele>
        <time>2010-08-28T13:25:10Z</time>
      </trkpt>
      <trkpt lat="45.60651" lon="6.04035">
        <ele>910.45617675781</ele>
        <time>2010-08-28T13:25:40Z</time>
      </trkpt>
      <trkpt lat="45.60686" lon="6.04081">
        <ele>922.49389648438</ele>
        <time>2010-08-28T13:26:10Z</time>
      </trkpt>
      <trkpt lat="45.60711" lon="6.04108">
        <ele>927.87182617188</ele>
        <time>2010-08-28T13:26:40Z</time>
      </trkpt>
      <trkpt lat="45.60745" lon="6.04066">
        <ele>930.61218261719</ele>
        <time>2010-08-28T13:27:10Z</time>
      </trkpt>
      <trkpt lat="45.60784" lon="6.04042">
        <ele>940.17980957031</ele>
        <time>2010-08-28T13:27:40Z</time>
      </trkpt>
      <trkpt lat="45.60822" lon="6.04007">
        <ele>940.95190429688</ele>
        <time>2010-08-28T13:28:10Z</time>
      </trkpt>
      <trkpt lat="45.60867" lon="6.03984">
        <ele>936.92663574219</ele>
        <time>2010-08-28T13:28:40Z</time>
      </trkpt>
      <trkpt lat="45.60887" lon="6.03992">
        <ele>937.98107910156</ele>
        <time>2010-08-28T13:29:10Z</time>
      </trkpt>
      <trkpt lat="45.60884" lon="6.03985">
        <ele>936.36633300781</ele>
        <time>2010-08-28T13:29:40Z</time>
      </trkpt>
      <trkpt lat="45.60879" lon="6.03985">
        <ele>936.68395996094</ele>
        <time>2010-08-28T13:30:35Z</time>
      </trkpt>
      <trkpt lat="45.60853" lon="6.03985">
        <ele>937.26989746094</ele>
        <time>2010-08-28T13:31:05Z</time>
      </trkpt>
      <trkpt lat="45.6086" lon="6.03984">
        <ele>937.06390380859</ele>
        <time>2010-08-28T13:31:35Z</time>
      </trkpt>
      <trkpt lat="45.60874" lon="6.03982">
        <ele>936.17236328125</ele>
        <time>2010-08-28T13:32:05Z</time>
      </trkpt>
      <trkpt lat="45.60889" lon="6.03992">
        <ele>937.91046142578</ele>
        <time>2010-08-28T13:32:35Z</time>
      </trkpt>
      <trkpt lat="45.60885" lon="6.03986">
        <ele>936.65887451172</ele>
        <time>2010-08-28T13:33:30Z</time>
      </trkpt>
      <trkpt lat="45.60861" lon="6.03982">
        <ele>936.70343017578</ele>
        <time>2010-08-28T13:34:00Z</time>
      </trkpt>
      <trkpt lat="45.60858" lon="6.03987">
        <ele>937.5703125</ele>
        <time>2010-08-28T13:34:49Z</time>
      </trkpt>
      <trkpt lat="45.60883" lon="6.03995">
        <ele>938.78570556641</ele>
        <time>2010-08-28T13:35:19Z</time>
      </trkpt>
      <trkpt lat="45.60894" lon="6.03997">
        <ele>938.15411376953</ele>
        <time>2010-08-28T13:35:49Z</time>
      </trkpt>
      <trkpt lat="45.60889" lon="6.03998">
        <ele>939.42321777344</ele>
        <time>2010-08-28T13:36:20Z</time>
      </trkpt>
      <trkpt lat="45.60886" lon="6.0399">
        <ele>937.62261962891</ele>
        <time>2010-08-28T13:36:50Z</time>
      </trkpt>
      <trkpt lat="45.60898" lon="6.03991">
        <ele>935.787109375</ele>
        <time>2010-08-28T13:37:20Z</time>
      </trkpt>
      <trkpt lat="45.60904" lon="6.03992">
        <ele>934.80908203125</ele>
        <time>2010-08-28T13:37:50Z</time>
      </trkpt>
      <trkpt lat="45.60889" lon="6.0399">
        <ele>937.4453125</ele>
        <time>2010-08-28T13:38:20Z</time>
      </trkpt>
      <trkpt lat="45.60884" lon="6.0399">
        <ele>937.68005371094</ele>
        <time>2010-08-28T13:38:51Z</time>
      </trkpt>
      <trkpt lat="45.60896" lon="6.03991">
        <ele>936.37249755859</ele>
        <time>2010-08-28T13:39:21Z</time>
      </trkpt>
      <trkpt lat="45.60886" lon="6.03989">
        <ele>937.38732910156</ele>
        <time>2010-08-28T13:39:51Z</time>
      </trkpt>
      <trkpt lat="45.60881" lon="6.0399">
        <ele>937.73327636719</ele>
        <time>2010-08-28T13:40:36Z</time>
      </trkpt>
      <trkpt lat="45.60896" lon="6.03996">
        <ele>937.39172363281</ele>
        <time>2010-08-28T13:41:06Z</time>
      </trkpt>
      <trkpt lat="45.60902" lon="6.03994">
        <ele>935.79602050781</ele>
        <time>2010-08-28T13:41:36Z</time>
      </trkpt>
      <trkpt lat="45.60897" lon="6.03992">
        <ele>936.34539794922</ele>
        <time>2010-08-28T13:42:13Z</time>
      </trkpt>
      <trkpt lat="45.60886" lon="6.03992">
        <ele>938.07916259766</ele>
        <time>2010-08-28T13:42:43Z</time>
      </trkpt>
      <trkpt lat="45.6089" lon="6.03996">
        <ele>938.59442138672</ele>
        <time>2010-08-28T13:43:29Z</time>
      </trkpt>
      <trkpt lat="45.60908" lon="6.04006">
        <ele>937.80883789062</ele>
        <time>2010-08-28T13:43:59Z</time>
      </trkpt>
      <trkpt lat="45.60898" lon="6.03998">
        <ele>937.47229003906</ele>
        <time>2010-08-28T13:44:29Z</time>
      </trkpt>
      <trkpt lat="45.60919" lon="6.04003">
        <ele>935.38348388672</ele>
        <time>2010-08-28T13:44:59Z</time>
      </trkpt>
      <trkpt lat="45.60986" lon="6.0402">
        <ele>950.84344482422</ele>
        <time>2010-08-28T13:45:29Z</time>
      </trkpt>
      <trkpt lat="45.61047" lon="6.03984">
        <ele>949.48138427734</ele>
        <time>2010-08-28T13:45:59Z</time>
      </trkpt>
      <trkpt lat="45.6112" lon="6.03946">
        <ele>935.41754150391</ele>
        <time>2010-08-28T13:46:29Z</time>
      </trkpt>
      <trkpt lat="45.61201" lon="6.03944">
        <ele>922.21997070312</ele>
        <time>2010-08-28T13:46:59Z</time>
      </trkpt>
      <trkpt lat="45.61317" lon="6.03993">
        <ele>906.18414306641</ele>
        <time>2010-08-28T13:47:29Z</time>
      </trkpt>
      <trkpt lat="45.61389" lon="6.04116">
        <ele>922.78887939453</ele>
        <time>2010-08-28T13:47:59Z</time>
      </trkpt>
      <trkpt lat="45.61414" lon="6.04154">
        <ele>936.82183837891</ele>
        <time>2010-08-28T13:48:29Z</time>
      </trkpt>
      <trkpt lat="45.61441" lon="6.04066">
        <ele>921.37646484375</ele>
        <time>2010-08-28T13:48:59Z</time>
      </trkpt>
      <trkpt lat="45.6148" lon="6.04068">
        <ele>921.12927246094</ele>
        <time>2010-08-28T13:49:29Z</time>
      </trkpt>
      <trkpt lat="45.61526" lon="6.04135">
        <ele>929.88232421875</ele>
        <time>2010-08-28T13:49:59Z</time>
      </trkpt>
      <trkpt lat="45.61553" lon="6.04188">
        <ele>943.44171142578</ele>
        <time>2010-08-28T13:50:29Z</time>
      </trkpt>
      <trkpt lat="45.61583" lon="6.0422">
        <ele>956.52545166016</ele>
        <time>2010-08-28T13:50:59Z</time>
      </trkpt>
      <trkpt lat="45.61606" lon="6.04229">
        <ele>960.6796875</ele>
        <time>2010-08-28T13:51:29Z</time>
      </trkpt>
      <trkpt lat="45.61617" lon="6.04243">
        <ele>964.99853515625</ele>
        <time>2010-08-28T13:51:59Z</time>
      </trkpt>
      <trkpt lat="45.61607" lon="6.04258">
        <ele>966.52996826172</ele>
        <time>2010-08-28T13:52:29Z</time>
      </trkpt>
      <trkpt lat="45.61599" lon="6.04239">
        <ele>961.6650390625</ele>
        <time>2010-08-28T13:52:59Z</time>
      </trkpt>
      <trkpt lat="45.61611" lon="6.04163">
        <ele>949.50891113281</ele>
        <time>2010-08-28T13:53:29Z</time>
      </trkpt>
      <trkpt lat="45.61647" lon="6.04111">
        <ele>952.20288085938</ele>
        <time>2010-08-28T13:53:59Z</time>
      </trkpt>
      <trkpt lat="45.61679" lon="6.04115">
        <ele>963.54846191406</ele>
        <time>2010-08-28T13:54:29Z</time>
      </trkpt>
      <trkpt lat="45.61728" lon="6.0413">
        <ele>985.26141357422</ele>
        <time>2010-08-28T13:54:59Z</time>
      </trkpt>
      <trkpt lat="45.61728" lon="6.04106">
        <ele>982.69934082031</ele>
        <time>2010-08-28T13:55:29Z</time>
      </trkpt>
      <trkpt lat="45.61712" lon="6.04052">
        <ele>969.62738037109</ele>
        <time>2010-08-28T13:55:59Z</time>
      </trkpt>
      <trkpt lat="45.61733" lon="6.04">
        <ele>967.81005859375</ele>
        <time>2010-08-28T13:56:29Z</time>
      </trkpt>
      <trkpt lat="45.61777" lon="6.03989">
        <ele>976.08898925781</ele>
        <time>2010-08-28T13:56:59Z</time>
      </trkpt>
      <trkpt lat="45.61818" lon="6.03947">
        <ele>984.54278564453</ele>
        <time>2010-08-28T13:57:29Z</time>
      </trkpt>
      <trkpt lat="45.61829" lon="6.03919">
        <ele>986.59448242188</ele>
        <time>2010-08-28T13:57:59Z</time>
      </trkpt>
      <trkpt lat="45.61828" lon="6.03926">
        <ele>986.72149658203</ele>
        <time>2010-08-28T13:58:45Z</time>
      </trkpt>
      <trkpt lat="45.6184" lon="6.03942">
        <ele>991.8662109375</ele>
        <time>2010-08-28T13:59:15Z</time>
      </trkpt>
      <trkpt lat="45.61909" lon="6.03967">
        <ele>1024.7604980469</ele>
        <time>2010-08-28T13:59:45Z</time>
      </trkpt>
      <trkpt lat="45.619" lon="6.03933">
        <ele>1019.7994384766</ele>
        <time>2010-08-28T14:00:15Z</time>
      </trkpt>
      <trkpt lat="45.61919" lon="6.03868">
        <ele>1017.9880371094</ele>
        <time>2010-08-28T14:00:45Z</time>
      </trkpt>
      <trkpt lat="45.61927" lon="6.03821">
        <ele>1025.3240966797</ele>
        <time>2010-08-28T14:01:15Z</time>
      </trkpt>
      <trkpt lat="45.61953" lon="6.03779">
        <ele>1041.3507080078</ele>
        <time>2010-08-28T14:01:45Z</time>
      </trkpt>
      <trkpt lat="45.61944" lon="6.03739">
        <ele>1048.8338623047</ele>
        <time>2010-08-28T14:02:15Z</time>
      </trkpt>
      <trkpt lat="45.61918" lon="6.03696">
        <ele>1050.1500244141</ele>
        <time>2010-08-28T14:02:45Z</time>
      </trkpt>
      <trkpt lat="45.61894" lon="6.03641">
        <ele>1054.3723144531</ele>
        <time>2010-08-28T14:03:15Z</time>
      </trkpt>
      <trkpt lat="45.61869" lon="6.03534">
        <ele>1062.6188964844</ele>
        <time>2010-08-28T14:03:45Z</time>
      </trkpt>
      <trkpt lat="45.61827" lon="6.03415">
        <ele>1058.205078125</ele>
        <time>2010-08-28T14:04:15Z</time>
      </trkpt>
      <trkpt lat="45.61806" lon="6.03363">
        <ele>1057.9099121094</ele>
        <time>2010-08-28T14:04:45Z</time>
      </trkpt>
      <trkpt lat="45.61799" lon="6.03309">
        <ele>1062.2045898438</ele>
        <time>2010-08-28T14:05:15Z</time>
      </trkpt>
      <trkpt lat="45.61797" lon="6.0328">
        <ele>1066.4741210938</ele>
        <time>2010-08-28T14:05:45Z</time>
      </trkpt>
      <trkpt lat="45.61794" lon="6.03262">
        <ele>1070.6561279297</ele>
        <time>2010-08-28T14:06:15Z</time>
      </trkpt>
      <trkpt lat="45.61798" lon="6.03239">
        <ele>1076.9404296875</ele>
        <time>2010-08-28T14:06:45Z</time>
      </trkpt>
      <trkpt lat="45.61806" lon="6.03211">
        <ele>1083.2562255859</ele>
        <time>2010-08-28T14:07:15Z</time>
      </trkpt>
      <trkpt lat="45.61818" lon="6.03183">
        <ele>1093.3692626953</ele>
        <time>2010-08-28T14:07:45Z</time>
      </trkpt>
      <trkpt lat="45.61837" lon="6.03165">
        <ele>1099.9498291016</ele>
        <time>2010-08-28T14:08:15Z</time>
      </trkpt>
      <trkpt lat="45.61843" lon="6.03141">
        <ele>1103.6577148438</ele>
        <time>2010-08-28T14:08:45Z</time>
      </trkpt>
      <trkpt lat="45.61839" lon="6.03114">
        <ele>1106.3999023438</ele>
        <time>2010-08-28T14:09:15Z</time>
      </trkpt>
      <trkpt lat="45.61843" lon="6.03084">
        <ele>1109.3603515625</ele>
        <time>2010-08-28T14:09:45Z</time>
      </trkpt>
      <trkpt lat="45.61839" lon="6.03058">
        <ele>1112.2646484375</ele>
        <time>2010-08-28T14:10:15Z</time>
      </trkpt>
      <trkpt lat="45.61871" lon="6.03006">
        <ele>1115.9344482422</ele>
        <time>2010-08-28T14:10:45Z</time>
      </trkpt>
      <trkpt lat="45.61869" lon="6.02954">
        <ele>1114.8161621094</ele>
        <time>2010-08-28T14:11:15Z</time>
      </trkpt>
      <trkpt lat="45.6187" lon="6.02948">
        <ele>1114.9809570312</ele>
        <time>2010-08-28T14:12:27Z</time>
      </trkpt>
      <trkpt lat="45.61874" lon="6.0294">
        <ele>1115.232421875</ele>
        <time>2010-08-28T14:12:57Z</time>
      </trkpt>
      <trkpt lat="45.61872" lon="6.02946">
        <ele>1115.1457519531</ele>
        <time>2010-08-28T14:13:32Z</time>
      </trkpt>
      <trkpt lat="45.61869" lon="6.02954">
        <ele>1114.8161621094</ele>
        <time>2010-08-28T14:14:02Z</time>
      </trkpt>
      <trkpt lat="45.6186" lon="6.02962">
        <ele>1113.9293212891</ele>
        <time>2010-08-28T14:14:32Z</time>
      </trkpt>
      <trkpt lat="45.61868" lon="6.02955">
        <ele>1114.6925048828</ele>
        <time>2010-08-28T14:15:02Z</time>
      </trkpt>
      <trkpt lat="45.61871" lon="6.0295">
        <ele>1115.0220947266</ele>
        <time>2010-08-28T14:17:43Z</time>
      </trkpt>
      <trkpt lat="45.61866" lon="6.02952">
        <ele>1114.5277099609</ele>
        <time>2010-08-28T14:18:13Z</time>
      </trkpt>
      <trkpt lat="45.61865" lon="6.0294">
        <ele>1114.2556152344</ele>
        <time>2010-08-28T14:18:43Z</time>
      </trkpt>
      <trkpt lat="45.61865" lon="6.02874">
        <ele>1112.9739990234</ele>
        <time>2010-08-28T14:19:13Z</time>
      </trkpt>
      <trkpt lat="45.61858" lon="6.02792">
        <ele>1106.0225830078</ele>
        <time>2010-08-28T14:19:43Z</time>
      </trkpt>
      <trkpt lat="45.61866" lon="6.02716">
        <ele>1092.6905517578</ele>
        <time>2010-08-28T14:20:13Z</time>
      </trkpt>
      <trkpt lat="45.61963" lon="6.02474">
        <ele>1067.8895263672</ele>
        <time>2010-08-28T14:20:43Z</time>
      </trkpt>
      <trkpt lat="45.62068" lon="6.0234">
        <ele>1038.4996337891</ele>
        <time>2010-08-28T14:21:13Z</time>
      </trkpt>
      <trkpt lat="45.62131" lon="6.02381">
        <ele>1039.6173095703</ele>
        <time>2010-08-28T14:21:43Z</time>
      </trkpt>
      <trkpt lat="45.6214" lon="6.02298">
        <ele>1031.5935058594</ele>
        <time>2010-08-28T14:22:13Z</time>
      </trkpt>
      <trkpt lat="45.62161" lon="6.02236">
        <ele>1029.7052001953</ele>
        <time>2010-08-28T14:22:43Z</time>
      </trkpt>
      <trkpt lat="45.62145" lon="6.02157">
        <ele>1019.4860839844</ele>
        <time>2010-08-28T14:23:13Z</time>
      </trkpt>
      <trkpt lat="45.6214" lon="6.02152">
        <ele>1017.5236206055</ele>
        <time>2010-08-28T14:24:29Z</time>
      </trkpt>
      <trkpt lat="45.62134" lon="6.02148">
        <ele>1015.6246337891</ele>
        <time>2010-08-28T14:25:02Z</time>
      </trkpt>
      <trkpt lat="45.62092" lon="6.01968">
        <ele>979.34655761719</ele>
        <time>2010-08-28T14:25:32Z</time>
      </trkpt>
      <trkpt lat="45.6208" lon="6.01794">
        <ele>954.93872070312</ele>
        <time>2010-08-28T14:26:02Z</time>
      </trkpt>
      <trkpt lat="45.622" lon="6.01543">
        <ele>953.62609863281</ele>
        <time>2010-08-28T14:26:32Z</time>
      </trkpt>
      <trkpt lat="45.62188" lon="6.01283">
        <ele>937.92431640625</ele>
        <time>2010-08-28T14:27:02Z</time>
      </trkpt>
      <trkpt lat="45.62243" lon="6.01083">
        <ele>931.19018554688</ele>
        <time>2010-08-28T14:27:32Z</time>
      </trkpt>
      <trkpt lat="45.62107" lon="6.01092">
        <ele>919.80847167969</ele>
        <time>2010-08-28T14:28:02Z</time>
      </trkpt>
      <trkpt lat="45.62104" lon="6.00983">
        <ele>915.98901367188</ele>
        <time>2010-08-28T14:28:32Z</time>
      </trkpt>
      <trkpt lat="45.62107" lon="6.00979">
        <ele>916.82159423828</ele>
        <time>2010-08-28T14:30:56Z</time>
      </trkpt>
      <trkpt lat="45.62107" lon="6.00985">
        <ele>916.58813476562</ele>
        <time>2010-08-28T14:31:40Z</time>
      </trkpt>
      <trkpt lat="45.62111" lon="6.00982">
        <ele>917.59576416016</ele>
        <time>2010-08-28T14:32:31Z</time>
      </trkpt>
      <trkpt lat="45.62106" lon="6.00984">
        <ele>916.52459716797</ele>
        <time>2010-08-28T14:33:57Z</time>
      </trkpt>
      <trkpt lat="45.62101" lon="6.00982">
        <ele>915.55474853516</ele>
        <time>2010-08-28T14:34:27Z</time>
      </trkpt>
      <trkpt lat="45.62106" lon="6.00979">
        <ele>916.71514892578</ele>
        <time>2010-08-28T14:35:55Z</time>
      </trkpt>
      <trkpt lat="45.62111" lon="6.00978">
        <ele>917.79772949219</ele>
        <time>2010-08-28T14:37:23Z</time>
      </trkpt>
      <trkpt lat="45.62106" lon="6.00977">
        <ele>916.78210449219</ele>
        <time>2010-08-28T14:39:27Z</time>
      </trkpt>
      <trkpt lat="45.62103" lon="6.00973">
        <ele>916.18988037109</ele>
        <time>2010-08-28T14:40:10Z</time>
      </trkpt>
      <trkpt lat="45.62098" lon="6.00967">
        <ele>915.31689453125</ele>
        <time>2010-08-28T14:43:03Z</time>
      </trkpt>
      <trkpt lat="45.61967" lon="6.01015">
        <ele>899.28729248047</ele>
        <time>2010-08-28T14:43:33Z</time>
      </trkpt>
      <trkpt lat="45.61909" lon="6.01175">
        <ele>890.40979003906</ele>
        <time>2010-08-28T14:44:03Z</time>
      </trkpt>
      <trkpt lat="45.61865" lon="6.01233">
        <ele>899.37322998047</ele>
        <time>2010-08-28T14:44:33Z</time>
      </trkpt>
      <trkpt lat="45.61807" lon="6.01309">
        <ele>907.12512207031</ele>
        <time>2010-08-28T14:45:03Z</time>
      </trkpt>
      <trkpt lat="45.61739" lon="6.01346">
        <ele>921.44250488281</ele>
        <time>2010-08-28T14:45:33Z</time>
      </trkpt>
      <trkpt lat="45.61655" lon="6.01358">
        <ele>942.61083984375</ele>
        <time>2010-08-28T14:46:03Z</time>
      </trkpt>
      <trkpt lat="45.61612" lon="6.01385">
        <ele>941.28344726562</ele>
        <time>2010-08-28T14:46:33Z</time>
      </trkpt>
      <trkpt lat="45.61562" lon="6.01417">
        <ele>933.90881347656</ele>
        <time>2010-08-28T14:47:03Z</time>
      </trkpt>
      <trkpt lat="45.61504" lon="6.01432">
        <ele>932.89575195312</ele>
        <time>2010-08-28T14:47:33Z</time>
      </trkpt>
      <trkpt lat="45.61442" lon="6.01391">
        <ele>945.40850830078</ele>
        <time>2010-08-28T14:48:03Z</time>
      </trkpt>
      <trkpt lat="45.61385" lon="6.01292">
        <ele>961.57635498047</ele>
        <time>2010-08-28T14:48:33Z</time>
      </trkpt>
      <trkpt lat="45.61285" lon="6.01185">
        <ele>950.05285644531</ele>
        <time>2010-08-28T14:49:03Z</time>
      </trkpt>
      <trkpt lat="45.6128" lon="6.01171">
        <ele>951.83197021484</ele>
        <time>2010-08-28T14:49:33Z</time>
      </trkpt>
      <trkpt lat="45.61277" lon="6.01166">
        <ele>952.06072998047</ele>
        <time>2010-08-28T14:50:03Z</time>
      </trkpt>
      <trkpt lat="45.61243" lon="6.01141">
        <ele>950.80078125</ele>
        <time>2010-08-28T14:50:33Z</time>
      </trkpt>
      <trkpt lat="45.61194" lon="6.01129">
        <ele>943.70416259766</ele>
        <time>2010-08-28T14:51:03Z</time>
      </trkpt>
      <trkpt lat="45.61148" lon="6.01124">
        <ele>946.28759765625</ele>
        <time>2010-08-28T14:51:33Z</time>
      </trkpt>
      <trkpt lat="45.61103" lon="6.01115">
        <ele>953.18133544922</ele>
        <time>2010-08-28T14:52:03Z</time>
      </trkpt>
      <trkpt lat="45.61063" lon="6.0111">
        <ele>957.07794189453</ele>
        <time>2010-08-28T14:52:33Z</time>
      </trkpt>
      <trkpt lat="45.61024" lon="6.01109">
        <ele>961.11120605469</ele>
        <time>2010-08-28T14:53:03Z</time>
      </trkpt>
      <trkpt lat="45.60991" lon="6.01101">
        <ele>966.22155761719</ele>
        <time>2010-08-28T14:53:33Z</time>
      </trkpt>
      <trkpt lat="45.60952" lon="6.01094">
        <ele>970.27752685547</ele>
        <time>2010-08-28T14:54:03Z</time>
      </trkpt>
      <trkpt lat="45.60916" lon="6.0108">
        <ele>977.37945556641</ele>
        <time>2010-08-28T14:54:33Z</time>
      </trkpt>
      <trkpt lat="45.60881" lon="6.01051">
        <ele>990.53894042969</ele>
        <time>2010-08-28T14:55:03Z</time>
      </trkpt>
      <trkpt lat="45.60841" lon="6.01035">
        <ele>996.76379394531</ele>
        <time>2010-08-28T14:55:33Z</time>
      </trkpt>
      <trkpt lat="45.60798" lon="6.01022">
        <ele>1000.4022216797</ele>
        <time>2010-08-28T14:56:03Z</time>
      </trkpt>
      <trkpt lat="45.60772" lon="6.01005">
        <ele>1008.0863037109</ele>
        <time>2010-08-28T14:56:33Z</time>
      </trkpt>
      <trkpt lat="45.60734" lon="6.01006">
        <ele>1007.7258300781</ele>
        <time>2010-08-28T14:57:03Z</time>
      </trkpt>
      <trkpt lat="45.60696" lon="6.01011">
        <ele>1006.1636962891</ele>
        <time>2010-08-28T14:57:33Z</time>
      </trkpt>
      <trkpt lat="45.60659" lon="6.0101">
        <ele>1012.9761962891</ele>
        <time>2010-08-28T14:58:03Z</time>
      </trkpt>
      <trkpt lat="45.60624" lon="6.01015">
        <ele>1016.6697387695</ele>
        <time>2010-08-28T14:58:33Z</time>
      </trkpt>
      <trkpt lat="45.60624" lon="6.01008">
        <ele>1019.0576171875</ele>
        <time>2010-08-28T14:59:03Z</time>
      </trkpt>
      <trkpt lat="45.6062" lon="6.01004">
        <ele>1020.8461914062</ele>
        <time>2010-08-28T15:00:16Z</time>
      </trkpt>
      <trkpt lat="45.6059" lon="6.00987">
        <ele>1025.1636962891</ele>
        <time>2010-08-28T15:00:46Z</time>
      </trkpt>
      <trkpt lat="45.60552" lon="6.01003">
        <ele>1028.2872314453</ele>
        <time>2010-08-28T15:01:16Z</time>
      </trkpt>
      <trkpt lat="45.60517" lon="6.00996">
        <ele>1033.9665527344</ele>
        <time>2010-08-28T15:01:46Z</time>
      </trkpt>
      <trkpt lat="45.60474" lon="6.00988">
        <ele>1041.7075195312</ele>
        <time>2010-08-28T15:02:16Z</time>
      </trkpt>
      <trkpt lat="45.60426" lon="6.00985">
        <ele>1046.4913330078</ele>
        <time>2010-08-28T15:02:46Z</time>
      </trkpt>
      <trkpt lat="45.60375" lon="6.00981">
        <ele>1048.4462890625</ele>
        <time>2010-08-28T15:03:16Z</time>
      </trkpt>
      <trkpt lat="45.60332" lon="6.00961">
        <ele>1055.1857910156</ele>
        <time>2010-08-28T15:03:46Z</time>
      </trkpt>
      <trkpt lat="45.60286" lon="6.00947">
        <ele>1061.4780273438</ele>
        <time>2010-08-28T15:04:16Z</time>
      </trkpt>
      <trkpt lat="45.60244" lon="6.00934">
        <ele>1064.9918212891</ele>
        <time>2010-08-28T15:04:46Z</time>
      </trkpt>
      <trkpt lat="45.60204" lon="6.00921">
        <ele>1068.6341552734</ele>
        <time>2010-08-28T15:05:16Z</time>
      </trkpt>
      <trkpt lat="45.60158" lon="6.00914">
        <ele>1071.5777587891</ele>
        <time>2010-08-28T15:05:46Z</time>
      </trkpt>
      <trkpt lat="45.60118" lon="6.00909">
        <ele>1074.2094726562</ele>
        <time>2010-08-28T15:06:16Z</time>
      </trkpt>
      <trkpt lat="45.60076" lon="6.00888">
        <ele>1080.0860595703</ele>
        <time>2010-08-28T15:06:46Z</time>
      </trkpt>
      <trkpt lat="45.60031" lon="6.00882">
        <ele>1083.2867431641</ele>
        <time>2010-08-28T15:07:16Z</time>
      </trkpt>
      <trkpt lat="45.59975" lon="6.009">
        <ele>1083.6469726562</ele>
        <time>2010-08-28T15:07:46Z</time>
      </trkpt>
      <trkpt lat="45.59947" lon="6.00899">
        <ele>1086.6907958984</ele>
        <time>2010-08-28T15:08:16Z</time>
      </trkpt>
      <trkpt lat="45.59948" lon="6.00892">
        <ele>1088.1007080078</ele>
        <time>2010-08-28T15:09:10Z</time>
      </trkpt>
      <trkpt lat="45.60005" lon="6.00859">
        <ele>1089.1751708984</ele>
        <time>2010-08-28T15:09:40Z</time>
      </trkpt>
      <trkpt lat="45.60048" lon="6.00812">
        <ele>1095.1123046875</ele>
        <time>2010-08-28T15:10:10Z</time>
      </trkpt>
      <trkpt lat="45.60095" lon="6.00777">
        <ele>1098.2357177734</ele>
        <time>2010-08-28T15:10:40Z</time>
      </trkpt>
      <trkpt lat="45.60117" lon="6.00728">
        <ele>1105.9661865234</ele>
        <time>2010-08-28T15:11:10Z</time>
      </trkpt>
      <trkpt lat="45.60149" lon="6.00691">
        <ele>1111.8387451172</ele>
        <time>2010-08-28T15:11:40Z</time>
      </trkpt>
      <trkpt lat="45.60192" lon="6.00668">
        <ele>1112.0301513672</ele>
        <time>2010-08-28T15:12:10Z</time>
      </trkpt>
      <trkpt lat="45.60221" lon="6.00641">
        <ele>1116.615234375</ele>
        <time>2010-08-28T15:12:40Z</time>
      </trkpt>
      <trkpt lat="45.60247" lon="6.00593">
        <ele>1121.2094726562</ele>
        <time>2010-08-28T15:13:10Z</time>
      </trkpt>
      <trkpt lat="45.60269" lon="6.00544">
        <ele>1124.4504394531</ele>
        <time>2010-08-28T15:13:40Z</time>
      </trkpt>
      <trkpt lat="45.60286" lon="6.00496">
        <ele>1127.0455322266</ele>
        <time>2010-08-28T15:14:10Z</time>
      </trkpt>
      <trkpt lat="45.60303" lon="6.00446">
        <ele>1129.0938720703</ele>
        <time>2010-08-28T15:14:40Z</time>
      </trkpt>
      <trkpt lat="45.60316" lon="6.00396">
        <ele>1131.1394042969</ele>
        <time>2010-08-28T15:15:10Z</time>
      </trkpt>
      <trkpt lat="45.60331" lon="6.00355">
        <ele>1132.75</ele>
        <time>2010-08-28T15:15:40Z</time>
      </trkpt>
      <trkpt lat="45.60355" lon="6.00312">
        <ele>1132.3861083984</ele>
        <time>2010-08-28T15:16:10Z</time>
      </trkpt>
      <trkpt lat="45.60374" lon="6.0027">
        <ele>1131.5236816406</ele>
        <time>2010-08-28T15:16:40Z</time>
      </trkpt>
      <trkpt lat="45.60366" lon="6.00222">
        <ele>1135.3782958984</ele>
        <time>2010-08-28T15:17:10Z</time>
      </trkpt>
      <trkpt lat="45.60334" lon="6.00188">
        <ele>1143.3400878906</ele>
        <time>2010-08-28T15:17:40Z</time>
      </trkpt>
      <trkpt lat="45.60298" lon="6.00202">
        <ele>1148.7749023438</ele>
        <time>2010-08-28T15:18:10Z</time>
      </trkpt>
      <trkpt lat="45.60283" lon="6.00165">
        <ele>1154.0928955078</ele>
        <time>2010-08-28T15:18:40Z</time>
      </trkpt>
      <trkpt lat="45.60268" lon="6.00115">
        <ele>1161.35546875</ele>
        <time>2010-08-28T15:19:10Z</time>
      </trkpt>
      <trkpt lat="45.6026" lon="6.00055">
        <ele>1167.2639160156</ele>
        <time>2010-08-28T15:19:40Z</time>
      </trkpt>
      <trkpt lat="45.60252" lon="5.99995">
        <ele>1175.4749755859</ele>
        <time>2010-08-28T15:20:10Z</time>
      </trkpt>
      <trkpt lat="45.6025" lon="5.99942">
        <ele>1180.146484375</ele>
        <time>2010-08-28T15:20:40Z</time>
      </trkpt>
      <trkpt lat="45.60248" lon="5.99886">
        <ele>1183.4432373047</ele>
        <time>2010-08-28T15:21:10Z</time>
      </trkpt>
      <trkpt lat="45.60244" lon="5.99836">
        <ele>1186.6156005859</ele>
        <time>2010-08-28T15:21:40Z</time>
      </trkpt>
      <trkpt lat="45.60243" lon="5.99783">
        <ele>1189.7999267578</ele>
        <time>2010-08-28T15:22:10Z</time>
      </trkpt>
      <trkpt lat="45.60254" lon="5.99728">
        <ele>1190.3537597656</ele>
        <time>2010-08-28T15:22:40Z</time>
      </trkpt>
      <trkpt lat="45.60266" lon="5.99674">
        <ele>1190.9354248047</ele>
        <time>2010-08-28T15:23:10Z</time>
      </trkpt>
      <trkpt lat="45.60269" lon="5.99602">
        <ele>1196.8966064453</ele>
        <time>2010-08-28T15:23:40Z</time>
      </trkpt>
      <trkpt lat="45.60279" lon="5.99533">
        <ele>1203.5023193359</ele>
        <time>2010-08-28T15:24:10Z</time>
      </trkpt>
      <trkpt lat="45.60292" lon="5.99481">
        <ele>1207.1623535156</ele>
        <time>2010-08-28T15:24:40Z</time>
      </trkpt>
      <trkpt lat="45.60295" lon="5.99428">
        <ele>1212.6517333984</ele>
        <time>2010-08-28T15:25:10Z</time>
      </trkpt>
      <trkpt lat="45.60297" lon="5.99379">
        <ele>1218.0562744141</ele>
        <time>2010-08-28T15:25:40Z</time>
      </trkpt>
      <trkpt lat="45.60297" lon="5.99325">
        <ele>1225.0007324219</ele>
        <time>2010-08-28T15:26:10Z</time>
      </trkpt>
      <trkpt lat="45.60322" lon="5.99269">
        <ele>1223.9906005859</ele>
        <time>2010-08-28T15:26:40Z</time>
      </trkpt>
      <trkpt lat="45.60349" lon="5.99214">
        <ele>1219.5739746094</ele>
        <time>2010-08-28T15:27:10Z</time>
      </trkpt>
      <trkpt lat="45.60353" lon="5.9921">
        <ele>1219.4538574219</ele>
        <time>2010-08-28T15:27:40Z</time>
      </trkpt>
      <trkpt lat="45.60349" lon="5.9921">
        <ele>1220.1130371094</ele>
        <time>2010-08-28T15:30:04Z</time>
      </trkpt>
      <trkpt lat="45.60353" lon="5.99206">
        <ele>1219.9086914062</ele>
        <time>2010-08-28T15:30:37Z</time>
      </trkpt>
      <trkpt lat="45.60349" lon="5.99209">
        <ele>1220.2606201172</ele>
        <time>2010-08-28T15:31:44Z</time>
      </trkpt>
      <trkpt lat="45.60337" lon="5.99204">
        <ele>1222.4132080078</ele>
        <time>2010-08-28T15:32:14Z</time>
      </trkpt>
      <trkpt lat="45.60345" lon="5.99207">
        <ele>1220.990234375</ele>
        <time>2010-08-28T15:32:44Z</time>
      </trkpt>
      <trkpt lat="45.60349" lon="5.9921">
        <ele>1220.0615234375</ele>
        <time>2010-08-28T15:34:17Z</time>
      </trkpt>
      <trkpt lat="45.60357" lon="5.99196">
        <ele>1220.4580078125</ele>
        <time>2010-08-28T15:34:47Z</time>
      </trkpt>
      <trkpt lat="45.60358" lon="5.99151">
        <ele>1221.9682617188</ele>
        <time>2010-08-28T15:35:17Z</time>
      </trkpt>
      <trkpt lat="45.60337" lon="5.99122">
        <ele>1228.5590820312</ele>
        <time>2010-08-28T15:35:47Z</time>
      </trkpt>
      <trkpt lat="45.60304" lon="5.99097">
        <ele>1244.7768554688</ele>
        <time>2010-08-28T15:36:17Z</time>
      </trkpt>
      <trkpt lat="45.60308" lon="5.99049">
        <ele>1243.1892089844</ele>
        <time>2010-08-28T15:36:47Z</time>
      </trkpt>
      <trkpt lat="45.60311" lon="5.98958">
        <ele>1232.0982666016</ele>
        <time>2010-08-28T15:37:17Z</time>
      </trkpt>
      <trkpt lat="45.60268" lon="5.98907">
        <ele>1237.0998535156</ele>
        <time>2010-08-28T15:37:47Z</time>
      </trkpt>
      <trkpt lat="45.60239" lon="5.98888">
        <ele>1239.5666503906</ele>
        <time>2010-08-28T15:38:17Z</time>
      </trkpt>
      <trkpt lat="45.60228" lon="5.98882">
        <ele>1240.7108154297</ele>
        <time>2010-08-28T15:38:47Z</time>
      </trkpt>
      <trkpt lat="45.60225" lon="5.98877">
        <ele>1240.7756347656</ele>
        <time>2010-08-28T15:39:17Z</time>
      </trkpt>
      <trkpt lat="45.6022" lon="5.98876">
        <ele>1241.3571777344</ele>
        <time>2010-08-28T15:39:52Z</time>
      </trkpt>
      <trkpt lat="45.60214" lon="5.98884">
        <ele>1242.8643798828</ele>
        <time>2010-08-28T15:40:22Z</time>
      </trkpt>
      <trkpt lat="45.60223" lon="5.98883">
        <ele>1241.3857421875</ele>
        <time>2010-08-28T15:40:52Z</time>
      </trkpt>
      <trkpt lat="45.60246" lon="5.98869">
        <ele>1236.4830322266</ele>
        <time>2010-08-28T15:41:22Z</time>
      </trkpt>
      <trkpt lat="45.60272" lon="5.98849">
        <ele>1217.9493408203</ele>
        <time>2010-08-28T15:41:52Z</time>
      </trkpt>
      <trkpt lat="45.60283" lon="5.98851">
        <ele>1212.7915039062</ele>
        <time>2010-08-28T15:42:22Z</time>
      </trkpt>
      <trkpt lat="45.60327" lon="5.98862">
        <ele>1190.7736816406</ele>
        <time>2010-08-28T15:42:52Z</time>
      </trkpt>
      <trkpt lat="45.60387" lon="5.98874">
        <ele>1177.2734375</ele>
        <time>2010-08-28T15:43:22Z</time>
      </trkpt>
      <trkpt lat="45.60423" lon="5.98885">
        <ele>1165.8664550781</ele>
        <time>2010-08-28T15:43:52Z</time>
      </trkpt>
      <trkpt lat="45.60462" lon="5.98881">
        <ele>1157.5416259766</ele>
        <time>2010-08-28T15:44:22Z</time>
      </trkpt>
      <trkpt lat="45.60518" lon="5.98891">
        <ele>1148.1691894531</ele>
        <time>2010-08-28T15:44:52Z</time>
      </trkpt>
      <trkpt lat="45.60523" lon="5.98885">
        <ele>1146.1884765625</ele>
        <time>2010-08-28T15:45:22Z</time>
      </trkpt>
      <trkpt lat="45.60527" lon="5.98888">
        <ele>1145.8900146484</ele>
        <time>2010-08-28T15:46:09Z</time>
      </trkpt>
      <trkpt lat="45.60531" lon="5.98892">
        <ele>1145.9710693359</ele>
        <time>2010-08-28T15:46:45Z</time>
      </trkpt>
      <trkpt lat="45.6054" lon="5.9889">
        <ele>1143.5609130859</ele>
        <time>2010-08-28T15:47:15Z</time>
      </trkpt>
      <trkpt lat="45.60535" lon="5.98892">
        <ele>1145.2192382812</ele>
        <time>2010-08-28T15:48:47Z</time>
      </trkpt>
      <trkpt lat="45.6054" lon="5.989">
        <ele>1145.6826171875</ele>
        <time>2010-08-28T15:49:17Z</time>
      </trkpt>
      <trkpt lat="45.60614" lon="5.98943">
        <ele>1140</ele>
        <time>2010-08-28T15:49:47Z</time>
      </trkpt>
      <trkpt lat="45.60668" lon="5.98928">
        <ele>1140.0325927734</ele>
        <time>2010-08-28T15:50:17Z</time>
      </trkpt>
      <trkpt lat="45.60683" lon="5.98931">
        <ele>1140.2789306641</ele>
        <time>2010-08-28T15:50:47Z</time>
      </trkpt>
      <trkpt lat="45.60687" lon="5.98924">
        <ele>1140.5361328125</ele>
        <time>2010-08-28T15:51:17Z</time>
      </trkpt>
      <trkpt lat="45.60693" lon="5.98925">
        <ele>1140.6575927734</ele>
        <time>2010-08-28T15:51:47Z</time>
      </trkpt>
      <trkpt lat="45.60697" lon="5.9893">
        <ele>1140.7469482422</ele>
        <time>2010-08-28T15:52:17Z</time>
      </trkpt>
      <trkpt lat="45.60733" lon="5.98946">
        <ele>1143.0340576172</ele>
        <time>2010-08-28T15:52:47Z</time>
      </trkpt>
      <trkpt lat="45.60812" lon="5.98959">
        <ele>1146.1608886719</ele>
        <time>2010-08-28T15:53:17Z</time>
      </trkpt>
      <trkpt lat="45.6088" lon="5.98991">
        <ele>1145.3232421875</ele>
        <time>2010-08-28T15:53:47Z</time>
      </trkpt>
      <trkpt lat="45.60946" lon="5.99005">
        <ele>1146.3413085938</ele>
        <time>2010-08-28T15:54:17Z</time>
      </trkpt>
      <trkpt lat="45.60991" lon="5.99004">
        <ele>1148.0716552734</ele>
        <time>2010-08-28T15:54:47Z</time>
      </trkpt>
      <trkpt lat="45.61035" lon="5.9899">
        <ele>1150.7192382812</ele>
        <time>2010-08-28T15:55:17Z</time>
      </trkpt>
      <trkpt lat="45.61071" lon="5.98973">
        <ele>1152.5013427734</ele>
        <time>2010-08-28T15:55:47Z</time>
      </trkpt>
      <trkpt lat="45.61085" lon="5.98948">
        <ele>1155.6815185547</ele>
        <time>2010-08-28T15:56:17Z</time>
      </trkpt>
      <trkpt lat="45.6109" lon="5.98887">
        <ele>1161.8129882812</ele>
        <time>2010-08-28T15:56:47Z</time>
      </trkpt>
      <trkpt lat="45.61083" lon="5.98835">
        <ele>1165.8684082031</ele>
        <time>2010-08-28T15:57:17Z</time>
      </trkpt>
      <trkpt lat="45.61094" lon="5.98825">
        <ele>1168.0386962891</ele>
        <time>2010-08-28T15:57:47Z</time>
      </trkpt>
      <trkpt lat="45.61111" lon="5.98781">
        <ele>1173.7521972656</ele>
        <time>2010-08-28T15:58:17Z</time>
      </trkpt>
      <trkpt lat="45.61115" lon="5.98729">
        <ele>1178.6724853516</ele>
        <time>2010-08-28T15:58:47Z</time>
      </trkpt>
      <trkpt lat="45.61115" lon="5.98689">
        <ele>1183.5495605469</ele>
        <time>2010-08-28T15:59:17Z</time>
      </trkpt>
      <trkpt lat="45.61128" lon="5.98647">
        <ele>1187.7603759766</ele>
        <time>2010-08-28T15:59:47Z</time>
      </trkpt>
      <trkpt lat="45.61139" lon="5.98611">
        <ele>1191.0001220703</ele>
        <time>2010-08-28T16:00:17Z</time>
      </trkpt>
      <trkpt lat="45.61154" lon="5.98578">
        <ele>1196.8106689453</ele>
        <time>2010-08-28T16:00:47Z</time>
      </trkpt>
      <trkpt lat="45.61162" lon="5.98556">
        <ele>1200.2884521484</ele>
        <time>2010-08-28T16:01:17Z</time>
      </trkpt>
      <trkpt lat="45.61167" lon="5.98528">
        <ele>1202.9666748047</ele>
        <time>2010-08-28T16:01:47Z</time>
      </trkpt>
      <trkpt lat="45.6118" lon="5.98505">
        <ele>1206.0002441406</ele>
        <time>2010-08-28T16:02:17Z</time>
      </trkpt>
      <trkpt lat="45.61198" lon="5.98465">
        <ele>1209.9063720703</ele>
        <time>2010-08-28T16:02:47Z</time>
      </trkpt>
      <trkpt lat="45.612" lon="5.98459">
        <ele>1210.6462402344</ele>
        <time>2010-08-28T16:03:18Z</time>
      </trkpt>
      <trkpt lat="45.61198" lon="5.98451">
        <ele>1211.4084472656</ele>
        <time>2010-08-28T16:04:59Z</time>
      </trkpt>
      <trkpt lat="45.61169" lon="5.98387">
        <ele>1214.2834472656</ele>
        <time>2010-08-28T16:05:29Z</time>
      </trkpt>
      <trkpt lat="45.61169" lon="5.98355">
        <ele>1216.4069824219</ele>
        <time>2010-08-28T16:05:59Z</time>
      </trkpt>
      <trkpt lat="45.61168" lon="5.98339">
        <ele>1216.8515625</ele>
        <time>2010-08-28T16:06:29Z</time>
      </trkpt>
      <trkpt lat="45.61162" lon="5.98299">
        <ele>1217.8386230469</ele>
        <time>2010-08-28T16:06:59Z</time>
      </trkpt>
      <trkpt lat="45.61143" lon="5.98232">
        <ele>1218.6961669922</ele>
        <time>2010-08-28T16:07:29Z</time>
      </trkpt>
      <trkpt lat="45.61106" lon="5.98163">
        <ele>1219.9404296875</ele>
        <time>2010-08-28T16:07:59Z</time>
      </trkpt>
      <trkpt lat="45.61081" lon="5.98093">
        <ele>1223.625</ele>
        <time>2010-08-28T16:08:29Z</time>
      </trkpt>
      <trkpt lat="45.61072" lon="5.98035">
        <ele>1227.0902099609</ele>
        <time>2010-08-28T16:08:59Z</time>
      </trkpt>
      <trkpt lat="45.61076" lon="5.98003">
        <ele>1230.6813964844</ele>
        <time>2010-08-28T16:09:29Z</time>
      </trkpt>
      <trkpt lat="45.61079" lon="5.97977">
        <ele>1232.9553222656</ele>
        <time>2010-08-28T16:09:59Z</time>
      </trkpt>
      <trkpt lat="45.61067" lon="5.97951">
        <ele>1233.9671630859</ele>
        <time>2010-08-28T16:10:29Z</time>
      </trkpt>
      <trkpt lat="45.61065" lon="5.97924">
        <ele>1236.2951660156</ele>
        <time>2010-08-28T16:10:59Z</time>
      </trkpt>
      <trkpt lat="45.61061" lon="5.97897">
        <ele>1238.6291503906</ele>
        <time>2010-08-28T16:11:29Z</time>
      </trkpt>
      <trkpt lat="45.61051" lon="5.9786">
        <ele>1242.2338867188</ele>
        <time>2010-08-28T16:11:59Z</time>
      </trkpt>
      <trkpt lat="45.61013" lon="5.97823">
        <ele>1246.5902099609</ele>
        <time>2010-08-28T16:12:29Z</time>
      </trkpt>
      <trkpt lat="45.61017" lon="5.97824">
        <ele>1246.8995361328</ele>
        <time>2010-08-28T16:13:31Z</time>
      </trkpt>
      <trkpt lat="45.61013" lon="5.97825">
        <ele>1246.1064453125</ele>
        <time>2010-08-28T16:14:16Z</time>
      </trkpt>
      <trkpt lat="45.61005" lon="5.97823">
        <ele>1245.4329833984</ele>
        <time>2010-08-28T16:14:46Z</time>
      </trkpt>
      <trkpt lat="45.61007" lon="5.97829">
        <ele>1244.765625</ele>
        <time>2010-08-28T16:17:56Z</time>
      </trkpt>
      <trkpt lat="45.61012" lon="5.97828">
        <ele>1245.5648193359</ele>
        <time>2010-08-28T16:19:24Z</time>
      </trkpt>
      <trkpt lat="45.6102" lon="5.97828">
        <ele>1246.6121826172</ele>
        <time>2010-08-28T16:19:54Z</time>
      </trkpt>
      <trkpt lat="45.61012" lon="5.97831">
        <ele>1245.2025146484</ele>
        <time>2010-08-28T16:20:24Z</time>
      </trkpt>
      <trkpt lat="45.6101" lon="5.97824">
        <ele>1245.9908447266</ele>
        <time>2010-08-28T16:22:00Z</time>
      </trkpt>
      <trkpt lat="45.61016" lon="5.97816">
        <ele>1248.1225585938</ele>
        <time>2010-08-28T16:22:30Z</time>
      </trkpt>
      <trkpt lat="45.6104" lon="5.97828">
        <ele>1247.9056396484</ele>
        <time>2010-08-28T16:23:00Z</time>
      </trkpt>
      <trkpt lat="45.61063" lon="5.97908">
        <ele>1237.7794189453</ele>
        <time>2010-08-28T16:23:30Z</time>
      </trkpt>
      <trkpt lat="45.61086" lon="5.97963">
        <ele>1235.2318115234</ele>
        <time>2010-08-28T16:24:00Z</time>
      </trkpt>
      <trkpt lat="45.61091" lon="5.97943">
        <ele>1237.6002197266</ele>
        <time>2010-08-28T16:24:30Z</time>
      </trkpt>
      <trkpt lat="45.61094" lon="5.97927">
        <ele>1238.7789306641</ele>
        <time>2010-08-28T16:25:00Z</time>
      </trkpt>
      <trkpt lat="45.61098" lon="5.97922">
        <ele>1239.2159423828</ele>
        <time>2010-08-28T16:25:30Z</time>
      </trkpt>
      <trkpt lat="45.61103" lon="5.97922">
        <ele>1239.4857177734</ele>
        <time>2010-08-28T16:26:00Z</time>
      </trkpt>
      <trkpt lat="45.61087" lon="5.97994">
        <ele>1232.7368164062</ele>
        <time>2010-08-28T16:26:30Z</time>
      </trkpt>
      <trkpt lat="45.61084" lon="5.9801">
        <ele>1231.2706298828</ele>
        <time>2010-08-28T16:27:00Z</time>
      </trkpt>
      <trkpt lat="45.61079" lon="5.9801">
        <ele>1230.4417724609</ele>
        <time>2010-08-28T16:27:30Z</time>
      </trkpt>
      <trkpt lat="45.61072" lon="5.98007">
        <ele>1229.6551513672</ele>
        <time>2010-08-28T16:28:00Z</time>
      </trkpt>
      <trkpt lat="45.61072" lon="5.98">
        <ele>1230.3494873047</ele>
        <time>2010-08-28T16:28:35Z</time>
      </trkpt>
      <trkpt lat="45.61076" lon="5.98009">
        <ele>1230.1365966797</ele>
        <time>2010-08-28T16:29:05Z</time>
      </trkpt>
      <trkpt lat="45.61081" lon="5.9808">
        <ele>1224.9008789062</ele>
        <time>2010-08-28T16:29:35Z</time>
      </trkpt>
      <trkpt lat="45.61134" lon="5.98184">
        <ele>1219.8968505859</ele>
        <time>2010-08-28T16:30:05Z</time>
      </trkpt>
      <trkpt lat="45.61166" lon="5.98282">
        <ele>1217.9760742188</ele>
        <time>2010-08-28T16:30:35Z</time>
      </trkpt>
      <trkpt lat="45.61172" lon="5.98337">
        <ele>1217.2755126953</ele>
        <time>2010-08-28T16:31:05Z</time>
      </trkpt>
      <trkpt lat="45.61192" lon="5.9832">
        <ele>1218.8614501953</ele>
        <time>2010-08-28T16:31:35Z</time>
      </trkpt>
      <trkpt lat="45.61197" lon="5.98314">
        <ele>1219.1020507812</ele>
        <time>2010-08-28T16:32:05Z</time>
      </trkpt>
      <trkpt lat="45.61223" lon="5.98291">
        <ele>1220</ele>
        <time>2010-08-28T16:32:35Z</time>
      </trkpt>
      <trkpt lat="45.61263" lon="5.98273">
        <ele>1221.8566894531</ele>
        <time>2010-08-28T16:33:05Z</time>
      </trkpt>
      <trkpt lat="45.6129" lon="5.98253">
        <ele>1226.2078857422</ele>
        <time>2010-08-28T16:33:35Z</time>
      </trkpt>
      <trkpt lat="45.61294" lon="5.98249">
        <ele>1226.9261474609</ele>
        <time>2010-08-28T16:34:09Z</time>
      </trkpt>
      <trkpt lat="45.61316" lon="5.98238">
        <ele>1230.4208984375</ele>
        <time>2010-08-28T16:34:39Z</time>
      </trkpt>
      <trkpt lat="45.61341" lon="5.98204">
        <ele>1234.1878662109</ele>
        <time>2010-08-28T16:35:09Z</time>
      </trkpt>
      <trkpt lat="45.61352" lon="5.98172">
        <ele>1234.9036865234</ele>
        <time>2010-08-28T16:35:39Z</time>
      </trkpt>
      <trkpt lat="45.61369" lon="5.98152">
        <ele>1237.8270263672</ele>
        <time>2010-08-28T16:36:09Z</time>
      </trkpt>
      <trkpt lat="45.61384" lon="5.9815">
        <ele>1239.52734375</ele>
        <time>2010-08-28T16:36:39Z</time>
      </trkpt>
      <trkpt lat="45.61395" lon="5.98151">
        <ele>1240.787109375</ele>
        <time>2010-08-28T16:37:09Z</time>
      </trkpt>
      <trkpt lat="45.61403" lon="5.98155">
        <ele>1241.7502441406</ele>
        <time>2010-08-28T16:37:39Z</time>
      </trkpt>
      <trkpt lat="45.61436" lon="5.98149">
        <ele>1246.4630126953</ele>
        <time>2010-08-28T16:38:09Z</time>
      </trkpt>
      <trkpt lat="45.61482" lon="5.98149">
        <ele>1251.5384521484</ele>
        <time>2010-08-28T16:38:39Z</time>
      </trkpt>
      <trkpt lat="45.61503" lon="5.98151">
        <ele>1254.0877685547</ele>
        <time>2010-08-28T16:39:09Z</time>
      </trkpt>
      <trkpt lat="45.61526" lon="5.98139">
        <ele>1254.9495849609</ele>
        <time>2010-08-28T16:39:39Z</time>
      </trkpt>
      <trkpt lat="45.61547" lon="5.98128">
        <ele>1256.6518554688</ele>
        <time>2010-08-28T16:40:09Z</time>
      </trkpt>
      <trkpt lat="45.61573" lon="5.98122">
        <ele>1258.9916992188</ele>
        <time>2010-08-28T16:40:39Z</time>
      </trkpt>
      <trkpt lat="45.61608" lon="5.98118">
        <ele>1262.2548828125</ele>
        <time>2010-08-28T16:41:09Z</time>
      </trkpt>
      <trkpt lat="45.61655" lon="5.98125">
        <ele>1267.7702636719</ele>
        <time>2010-08-28T16:41:39Z</time>
      </trkpt>
      <trkpt lat="45.61715" lon="5.98139">
        <ele>1272.4937744141</ele>
        <time>2010-08-28T16:42:09Z</time>
      </trkpt>
      <trkpt lat="45.61761" lon="5.98134">
        <ele>1274.5825195312</ele>
        <time>2010-08-28T16:42:39Z</time>
      </trkpt>
      <trkpt lat="45.61796" lon="5.98104">
        <ele>1276.9948730469</ele>
        <time>2010-08-28T16:43:09Z</time>
      </trkpt>
      <trkpt lat="45.61833" lon="5.9808">
        <ele>1280.2526855469</ele>
        <time>2010-08-28T16:43:39Z</time>
      </trkpt>
      <trkpt lat="45.61874" lon="5.98089">
        <ele>1280.6236572266</ele>
        <time>2010-08-28T16:44:09Z</time>
      </trkpt>
      <trkpt lat="45.61929" lon="5.98122">
        <ele>1280.7819824219</ele>
        <time>2010-08-28T16:44:39Z</time>
      </trkpt>
      <trkpt lat="45.6198" lon="5.98156">
        <ele>1283.2249755859</ele>
        <time>2010-08-28T16:45:09Z</time>
      </trkpt>
      <trkpt lat="45.62023" lon="5.9817">
        <ele>1289.0610351562</ele>
        <time>2010-08-28T16:45:39Z</time>
      </trkpt>
      <trkpt lat="45.62055" lon="5.98192">
        <ele>1293.1353759766</ele>
        <time>2010-08-28T16:46:09Z</time>
      </trkpt>
      <trkpt lat="45.62075" lon="5.98196">
        <ele>1293.5207519531</ele>
        <time>2010-08-28T16:46:39Z</time>
      </trkpt>
      <trkpt lat="45.62109" lon="5.98199">
        <ele>1292.4161376953</ele>
        <time>2010-08-28T16:47:09Z</time>
      </trkpt>
      <trkpt lat="45.62154" lon="5.98272">
        <ele>1280.3372802734</ele>
        <time>2010-08-28T16:47:39Z</time>
      </trkpt>
      <trkpt lat="45.62159" lon="5.98323">
        <ele>1279.8344726562</ele>
        <time>2010-08-28T16:48:09Z</time>
      </trkpt>
      <trkpt lat="45.6217" lon="5.98327">
        <ele>1280</ele>
        <time>2010-08-28T16:48:39Z</time>
      </trkpt>
      <trkpt lat="45.62176" lon="5.98331">
        <ele>1280</ele>
        <time>2010-08-28T16:49:09Z</time>
      </trkpt>
      <trkpt lat="45.62179" lon="5.98337">
        <ele>1280.1292724609</ele>
        <time>2010-08-28T16:49:39Z</time>
      </trkpt>
      <trkpt lat="45.62174" lon="5.98338">
        <ele>1280.0776367188</ele>
        <time>2010-08-28T16:50:19Z</time>
      </trkpt>
      <trkpt lat="45.62147" lon="5.98386">
        <ele>1278.6672363281</ele>
        <time>2010-08-28T16:50:49Z</time>
      </trkpt>
      <trkpt lat="45.62123" lon="5.98504">
        <ele>1268.2279052734</ele>
        <time>2010-08-28T16:51:19Z</time>
      </trkpt>
      <trkpt lat="45.62051" lon="5.98588">
        <ele>1250.0045166016</ele>
        <time>2010-08-28T16:51:49Z</time>
      </trkpt>
      <trkpt lat="45.62043" lon="5.98595">
        <ele>1248.2796630859</ele>
        <time>2010-08-28T16:52:19Z</time>
      </trkpt>
      <trkpt lat="45.62037" lon="5.98596">
        <ele>1247.5357666016</ele>
        <time>2010-08-28T16:53:41Z</time>
      </trkpt>
      <trkpt lat="45.62122" lon="5.98703">
        <ele>1238.1994628906</ele>
        <time>2010-08-28T16:54:11Z</time>
      </trkpt>
      <trkpt lat="45.62228" lon="5.98785">
        <ele>1234.353515625</ele>
        <time>2010-08-28T16:54:41Z</time>
      </trkpt>
      <trkpt lat="45.62281" lon="5.988">
        <ele>1234.0770263672</ele>
        <time>2010-08-28T16:55:11Z</time>
      </trkpt>
      <trkpt lat="45.62318" lon="5.98813">
        <ele>1234.5260009766</ele>
        <time>2010-08-28T16:55:41Z</time>
      </trkpt>
      <trkpt lat="45.62381" lon="5.9886">
        <ele>1231.3428955078</ele>
        <time>2010-08-28T16:56:11Z</time>
      </trkpt>
      <trkpt lat="45.6239" lon="5.99064">
        <ele>1209.9600830078</ele>
        <time>2010-08-28T16:56:41Z</time>
      </trkpt>
      <trkpt lat="45.62339" lon="5.99251">
        <ele>1177.5565185547</ele>
        <time>2010-08-28T16:57:11Z</time>
      </trkpt>
      <trkpt lat="45.62355" lon="5.99399">
        <ele>1157.2498779297</ele>
        <time>2010-08-28T16:57:41Z</time>
      </trkpt>
      <trkpt lat="45.62358" lon="5.99403">
        <ele>1156.7756347656</ele>
        <time>2010-08-28T16:58:32Z</time>
      </trkpt>
      <trkpt lat="45.62402" lon="5.99438">
        <ele>1155.0718994141</ele>
        <time>2010-08-28T16:59:02Z</time>
      </trkpt>
      <trkpt lat="45.62404" lon="5.99444">
        <ele>1154.7268066406</ele>
        <time>2010-08-28T16:59:48Z</time>
      </trkpt>
      <trkpt lat="45.62388" lon="5.99445">
        <ele>1152.8125</ele>
        <time>2010-08-28T17:00:18Z</time>
      </trkpt>
      <trkpt lat="45.62267" lon="5.99586">
        <ele>1124.6075439453</ele>
        <time>2010-08-28T17:00:48Z</time>
      </trkpt>
      <trkpt lat="45.62255" lon="5.99752">
        <ele>1107.0192871094</ele>
        <time>2010-08-28T17:01:18Z</time>
      </trkpt>
      <trkpt lat="45.62258" lon="5.99759">
        <ele>1106.2553710938</ele>
        <time>2010-08-28T17:01:48Z</time>
      </trkpt>
      <trkpt lat="45.62259" lon="5.99769">
        <ele>1105.2374267578</ele>
        <time>2010-08-28T17:02:33Z</time>
      </trkpt>
      <trkpt lat="45.62263" lon="5.99876">
        <ele>1094.4360351562</ele>
        <time>2010-08-28T17:03:03Z</time>
      </trkpt>
      <trkpt lat="45.62294" lon="5.9994">
        <ele>1087.9747314453</ele>
        <time>2010-08-28T17:03:33Z</time>
      </trkpt>
      <trkpt lat="45.62285" lon="6.00036">
        <ele>1074.1185302734</ele>
        <time>2010-08-28T17:04:03Z</time>
      </trkpt>
      <trkpt lat="45.62226" lon="6.0011">
        <ele>1059.3005371094</ele>
        <time>2010-08-28T17:04:33Z</time>
      </trkpt>
      <trkpt lat="45.62085" lon="6.00052">
        <ele>1054.3726806641</ele>
        <time>2010-08-28T17:05:03Z</time>
      </trkpt>
      <trkpt lat="45.62089" lon="6.0006">
        <ele>1053.7946777344</ele>
        <time>2010-08-28T17:05:33Z</time>
      </trkpt>
      <trkpt lat="45.62075" lon="6.00159">
        <ele>1038.5333251953</ele>
        <time>2010-08-28T17:06:03Z</time>
      </trkpt>
      <trkpt lat="45.62066" lon="6.00189">
        <ele>1032.8972167969</ele>
        <time>2010-08-28T17:06:33Z</time>
      </trkpt>
      <trkpt lat="45.62061" lon="6.00191">
        <ele>1032.0938720703</ele>
        <time>2010-08-28T17:07:25Z</time>
      </trkpt>
      <trkpt lat="45.62057" lon="6.00193">
        <ele>1031.3316650391</ele>
        <time>2010-08-28T17:07:55Z</time>
      </trkpt>
      <trkpt lat="45.62061" lon="6.0019">
        <ele>1032.2174072266</ele>
        <time>2010-08-28T17:08:34Z</time>
      </trkpt>
      <trkpt lat="45.62057" lon="6.00194">
        <ele>1031.1668701172</ele>
        <time>2010-08-28T17:09:07Z</time>
      </trkpt>
      <trkpt lat="45.62014" lon="6.00281">
        <ele>1014.6674194336</ele>
        <time>2010-08-28T17:09:37Z</time>
      </trkpt>
      <trkpt lat="45.62011" lon="6.00291">
        <ele>1013.5550537109</ele>
        <time>2010-08-28T17:10:07Z</time>
      </trkpt>
      <trkpt lat="45.61951" lon="6.00412">
        <ele>992.96954345703</ele>
        <time>2010-08-28T17:10:37Z</time>
      </trkpt>
      <trkpt lat="45.61946" lon="6.00423">
        <ele>990.89392089844</ele>
        <time>2010-08-28T17:11:07Z</time>
      </trkpt>
      <trkpt lat="45.61953" lon="6.00423">
        <ele>990.79949951172</ele>
        <time>2010-08-28T17:11:37Z</time>
      </trkpt>
      <trkpt lat="45.61839" lon="6.0043">
        <ele>973.41394042969</ele>
        <time>2010-08-28T17:12:07Z</time>
      </trkpt>
      <trkpt lat="45.62064" lon="6.00794">
        <ele>919.03936767578</ele>
        <time>2010-08-28T17:12:37Z</time>
      </trkpt>
      <trkpt lat="45.62096" lon="6.00981">
        <ele>914.50073242188</ele>
        <time>2010-08-28T17:13:07Z</time>
      </trkpt>
      <trkpt lat="45.6208" lon="6.0106">
        <ele>910.25244140625</ele>
        <time>2010-08-28T17:13:37Z</time>
      </trkpt>
      <trkpt lat="45.6208" lon="6.01051">
        <ele>909.36279296875</ele>
        <time>2010-08-28T17:14:15Z</time>
      </trkpt>
      <trkpt lat="45.62086" lon="6.01047">
        <ele>910.79467773438</ele>
        <time>2010-08-28T17:14:45Z</time>
      </trkpt>
      <trkpt lat="45.62083" lon="6.01055">
        <ele>910.02563476562</ele>
        <time>2010-08-28T17:15:26Z</time>
      </trkpt>
      <trkpt lat="45.62056" lon="6.01131">
        <ele>911.15936279297</ele>
        <time>2010-08-28T17:15:56Z</time>
      </trkpt>
      <trkpt lat="45.62086" lon="6.01238">
        <ele>919.79382324219</ele>
        <time>2010-08-28T17:16:26Z</time>
      </trkpt>
      <trkpt lat="45.62037" lon="6.01328">
        <ele>902.7822265625</ele>
        <time>2010-08-28T17:16:56Z</time>
      </trkpt>
      <trkpt lat="45.61975" lon="6.01446">
        <ele>897.06384277344</ele>
        <time>2010-08-28T17:17:26Z</time>
      </trkpt>
      <trkpt lat="45.61897" lon="6.01613">
        <ele>904.76031494141</ele>
        <time>2010-08-28T17:17:56Z</time>
      </trkpt>
      <trkpt lat="45.61786" lon="6.0166">
        <ele>888.47137451172</ele>
        <time>2010-08-28T17:18:26Z</time>
      </trkpt>
      <trkpt lat="45.61644" lon="6.01669">
        <ele>852.94561767578</ele>
        <time>2010-08-28T17:18:56Z</time>
      </trkpt>
      <trkpt lat="45.61551" lon="6.01723">
        <ele>840.71118164062</ele>
        <time>2010-08-28T17:19:26Z</time>
      </trkpt>
      <trkpt lat="45.61533" lon="6.01858">
        <ele>888.49267578125</ele>
        <time>2010-08-28T17:19:56Z</time>
      </trkpt>
      <trkpt lat="45.61531" lon="6.01864">
        <ele>889.42462158203</ele>
        <time>2010-08-28T17:20:26Z</time>
      </trkpt>
      <trkpt lat="45.6151" lon="6.01933">
        <ele>886.06066894531</ele>
        <time>2010-08-28T17:20:56Z</time>
      </trkpt>
      <trkpt lat="45.61484" lon="6.0207">
        <ele>871.88671875</ele>
        <time>2010-08-28T17:21:26Z</time>
      </trkpt>
      <trkpt lat="45.61467" lon="6.02175">
        <ele>868.35021972656</ele>
        <time>2010-08-28T17:21:56Z</time>
      </trkpt>
      <trkpt lat="45.61455" lon="6.02258">
        <ele>868.49224853516</ele>
        <time>2010-08-28T17:22:26Z</time>
      </trkpt>
      <trkpt lat="45.61457" lon="6.02265">
        <ele>870.83892822266</ele>
        <time>2010-08-28T17:23:14Z</time>
      </trkpt>
      <trkpt lat="45.61397" lon="6.02364">
        <ele>843.97180175781</ele>
        <time>2010-08-28T17:23:44Z</time>
      </trkpt>
      <trkpt lat="45.61311" lon="6.024">
        <ele>799.20886230469</ele>
        <time>2010-08-28T17:24:14Z</time>
      </trkpt>
      <trkpt lat="45.61219" lon="6.02453">
        <ele>784.31896972656</ele>
        <time>2010-08-28T17:24:44Z</time>
      </trkpt>
      <trkpt lat="45.61186" lon="6.0246">
        <ele>778.51678466797</ele>
        <time>2010-08-28T17:25:14Z</time>
      </trkpt>
      <trkpt lat="45.61182" lon="6.02465">
        <ele>777.82897949219</ele>
        <time>2010-08-28T17:25:44Z</time>
      </trkpt>
      <trkpt lat="45.61141" lon="6.02619">
        <ele>773.35681152344</ele>
        <time>2010-08-28T17:26:14Z</time>
      </trkpt>
      <trkpt lat="45.61147" lon="6.02815">
        <ele>769.79327392578</ele>
        <time>2010-08-28T17:26:44Z</time>
      </trkpt>
      <trkpt lat="45.61109" lon="6.03028">
        <ele>754.66400146484</ele>
        <time>2010-08-28T17:27:14Z</time>
      </trkpt>
      <trkpt lat="45.61033" lon="6.02744">
        <ele>742.54968261719</ele>
        <time>2010-08-28T17:27:44Z</time>
      </trkpt>
      <trkpt lat="45.60922" lon="6.026">
        <ele>715.80682373047</ele>
        <time>2010-08-28T17:28:14Z</time>
      </trkpt>
      <trkpt lat="45.6093" lon="6.0276">
        <ele>723.44537353516</ele>
        <time>2010-08-28T17:28:44Z</time>
      </trkpt>
      <trkpt lat="45.60931" lon="6.02823">
        <ele>724.51403808594</ele>
        <time>2010-08-28T17:29:14Z</time>
      </trkpt>
      <trkpt lat="45.60934" lon="6.02828">
        <ele>725.06335449219</ele>
        <time>2010-08-28T17:29:50Z</time>
      </trkpt>
      <trkpt lat="45.60938" lon="6.02825">
        <ele>725.88732910156</ele>
        <time>2010-08-28T17:30:20Z</time>
      </trkpt>
      <trkpt lat="45.60936" lon="6.02819">
        <ele>725.47534179688</ele>
        <time>2010-08-28T17:31:01Z</time>
      </trkpt>
      <trkpt lat="45.60931" lon="6.02817">
        <ele>724.6513671875</ele>
        <time>2010-08-28T17:31:45Z</time>
      </trkpt>
      <trkpt lat="45.60931" lon="6.02818">
        <ele>724.6513671875</ele>
        <time>2010-08-28T17:31:46Z</time>
      </trkpt>
    </trkseg>
  </trk>
</gpx>